<?xml version="1.0" encoding="UTF-8" standalone="no" ?>
<gpx xmlns="http://www.topografix.com/GPX/1/1" xmlns:xsi="http://www.w3.org/2001/XMLSchema-instance" xsi:schemaLocation="http://www.topografix.com/GPX/1/1 http://www.topografix.com/GPX/1/1/gpx.xsd" version="1.1" creator="VisuGPX - https://www.visugpx.com">
  <metadata>
    <name>boucle bourrou 8km</name>
  </metadata>
  <trk>
    <name><![CDATA[randogps24-413]]></name>
    <trkseg>
      <trkpt lat="45.04531" lon="0.59825">
        <ele>223.16</ele>
        <time>2018-01-18T12:38:15Z</time>
      </trkpt>
      <trkpt lat="45.04531" lon="0.59824">
        <ele>223.16</ele>
        <time>2018-01-18T12:38:16Z</time>
      </trkpt>
      <trkpt lat="45.0453" lon="0.59824">
        <ele>206.34</ele>
        <time>2018-01-18T12:38:19Z</time>
      </trkpt>
      <trkpt lat="45.0453" lon="0.59824">
        <ele>206.34</ele>
        <time>2018-01-18T12:38:20Z</time>
      </trkpt>
      <trkpt lat="45.04529" lon="0.59823">
        <ele>206.34</ele>
        <time>2018-01-18T12:38:37Z</time>
      </trkpt>
      <trkpt lat="45.0453" lon="0.59822">
        <ele>206.82</ele>
        <time>2018-01-18T12:38:54Z</time>
      </trkpt>
      <trkpt lat="45.04528" lon="0.59822">
        <ele>206.82</ele>
        <time>2018-01-18T12:39:11Z</time>
      </trkpt>
      <trkpt lat="45.0453" lon="0.59822">
        <ele>206.82</ele>
        <time>2018-01-18T12:39:31Z</time>
      </trkpt>
      <trkpt lat="45.04531" lon="0.59822">
        <ele>206.82</ele>
        <time>2018-01-18T12:40:00Z</time>
      </trkpt>
      <trkpt lat="45.0453" lon="0.59826">
        <ele>207.3</ele>
        <time>2018-01-18T12:40:20Z</time>
      </trkpt>
      <trkpt lat="45.04528" lon="0.59825">
        <ele>206.82</ele>
        <time>2018-01-18T12:40:32Z</time>
      </trkpt>
      <trkpt lat="45.04528" lon="0.59826">
        <ele>206.82</ele>
        <time>2018-01-18T12:40:49Z</time>
      </trkpt>
      <trkpt lat="45.04528" lon="0.59825">
        <ele>207.3</ele>
        <time>2018-01-18T12:41:16Z</time>
      </trkpt>
      <trkpt lat="45.04524" lon="0.59824">
        <ele>207.3</ele>
        <time>2018-01-18T12:41:31Z</time>
      </trkpt>
      <trkpt lat="45.04519" lon="0.59819">
        <ele>207.3</ele>
        <time>2018-01-18T12:41:38Z</time>
      </trkpt>
      <trkpt lat="45.04515" lon="0.59812">
        <ele>207.78</ele>
        <time>2018-01-18T12:41:45Z</time>
      </trkpt>
      <trkpt lat="45.04509" lon="0.59797">
        <ele>208.26</ele>
        <time>2018-01-18T12:42:01Z</time>
      </trkpt>
      <trkpt lat="45.04504" lon="0.59798">
        <ele>209.22</ele>
        <time>2018-01-18T12:42:06Z</time>
      </trkpt>
      <trkpt lat="45.04492" lon="0.59799">
        <ele>209.22</ele>
        <time>2018-01-18T12:42:18Z</time>
      </trkpt>
      <trkpt lat="45.04484" lon="0.59777">
        <ele>209.22</ele>
        <time>2018-01-18T12:42:33Z</time>
      </trkpt>
      <trkpt lat="45.04483" lon="0.59772">
        <ele>208.74</ele>
        <time>2018-01-18T12:42:36Z</time>
      </trkpt>
      <trkpt lat="45.04485" lon="0.59744">
        <ele>207.78</ele>
        <time>2018-01-18T12:42:53Z</time>
      </trkpt>
      <trkpt lat="45.04492" lon="0.59712">
        <ele>207.3</ele>
        <time>2018-01-18T12:43:12Z</time>
      </trkpt>
      <trkpt lat="45.04504" lon="0.59697">
        <ele>207.3</ele>
        <time>2018-01-18T12:43:27Z</time>
      </trkpt>
      <trkpt lat="45.04519" lon="0.59677">
        <ele>206.82</ele>
        <time>2018-01-18T12:43:45Z</time>
      </trkpt>
      <trkpt lat="45.04536" lon="0.59661">
        <ele>205.38</ele>
        <time>2018-01-18T12:44:02Z</time>
      </trkpt>
      <trkpt lat="45.04557" lon="0.59648">
        <ele>204.42</ele>
        <time>2018-01-18T12:44:20Z</time>
      </trkpt>
      <trkpt lat="45.04572" lon="0.59628">
        <ele>202.01</ele>
        <time>2018-01-18T12:44:39Z</time>
      </trkpt>
      <trkpt lat="45.04588" lon="0.59606">
        <ele>200.09</ele>
        <time>2018-01-18T12:44:59Z</time>
      </trkpt>
      <trkpt lat="45.0461" lon="0.59615">
        <ele>199.13</ele>
        <time>2018-01-18T12:45:18Z</time>
      </trkpt>
      <trkpt lat="45.04615" lon="0.59627">
        <ele>198.65</ele>
        <time>2018-01-18T12:45:29Z</time>
      </trkpt>
      <trkpt lat="45.04618" lon="0.59632">
        <ele>200.09</ele>
        <time>2018-01-18T12:45:34Z</time>
      </trkpt>
      <trkpt lat="45.04621" lon="0.59634">
        <ele>200.09</ele>
        <time>2018-01-18T12:45:37Z</time>
      </trkpt>
      <trkpt lat="45.04625" lon="0.59635">
        <ele>200.57</ele>
        <time>2018-01-18T12:45:40Z</time>
      </trkpt>
      <trkpt lat="45.04633" lon="0.59631">
        <ele>200.57</ele>
        <time>2018-01-18T12:45:49Z</time>
      </trkpt>
      <trkpt lat="45.04638" lon="0.59624">
        <ele>199.13</ele>
        <time>2018-01-18T12:45:57Z</time>
      </trkpt>
      <trkpt lat="45.04652" lon="0.59622">
        <ele>197.21</ele>
        <time>2018-01-18T12:46:12Z</time>
      </trkpt>
      <trkpt lat="45.04667" lon="0.59627">
        <ele>195.28</ele>
        <time>2018-01-18T12:46:28Z</time>
      </trkpt>
      <trkpt lat="45.04679" lon="0.59634">
        <ele>192.88</ele>
        <time>2018-01-18T12:46:43Z</time>
      </trkpt>
      <trkpt lat="45.04686" lon="0.59636">
        <ele>191.44</ele>
        <time>2018-01-18T12:46:57Z</time>
      </trkpt>
      <trkpt lat="45.04698" lon="0.5964">
        <ele>189.04</ele>
        <time>2018-01-18T12:47:09Z</time>
      </trkpt>
      <trkpt lat="45.04713" lon="0.59646">
        <ele>188.08</ele>
        <time>2018-01-18T12:47:25Z</time>
      </trkpt>
      <trkpt lat="45.04731" lon="0.59655">
        <ele>187.11</ele>
        <time>2018-01-18T12:47:41Z</time>
      </trkpt>
      <trkpt lat="45.04736" lon="0.59658">
        <ele>187.11</ele>
        <time>2018-01-18T12:47:47Z</time>
      </trkpt>
      <trkpt lat="45.04741" lon="0.59663">
        <ele>186.63</ele>
        <time>2018-01-18T12:47:52Z</time>
      </trkpt>
      <trkpt lat="45.04749" lon="0.59668">
        <ele>186.63</ele>
        <time>2018-01-18T12:48:00Z</time>
      </trkpt>
      <trkpt lat="45.04761" lon="0.59675">
        <ele>186.15</ele>
        <time>2018-01-18T12:48:12Z</time>
      </trkpt>
      <trkpt lat="45.04775" lon="0.59682">
        <ele>185.67</ele>
        <time>2018-01-18T12:48:26Z</time>
      </trkpt>
      <trkpt lat="45.04789" lon="0.59691">
        <ele>185.19</ele>
        <time>2018-01-18T12:48:42Z</time>
      </trkpt>
      <trkpt lat="45.04793" lon="0.59696">
        <ele>185.19</ele>
        <time>2018-01-18T12:48:48Z</time>
      </trkpt>
      <trkpt lat="45.04802" lon="0.5971">
        <ele>186.63</ele>
        <time>2018-01-18T12:49:02Z</time>
      </trkpt>
      <trkpt lat="45.04809" lon="0.5973">
        <ele>187.11</ele>
        <time>2018-01-18T12:49:15Z</time>
      </trkpt>
      <trkpt lat="45.04814" lon="0.59744">
        <ele>186.63</ele>
        <time>2018-01-18T12:49:28Z</time>
      </trkpt>
      <trkpt lat="45.04824" lon="0.59758">
        <ele>184.71</ele>
        <time>2018-01-18T12:49:43Z</time>
      </trkpt>
      <trkpt lat="45.04825" lon="0.59759">
        <ele>184.71</ele>
        <time>2018-01-18T12:49:44Z</time>
      </trkpt>
      <trkpt lat="45.04833" lon="0.59769">
        <ele>184.71</ele>
        <time>2018-01-18T12:49:58Z</time>
      </trkpt>
      <trkpt lat="45.04843" lon="0.59778">
        <ele>184.71</ele>
        <time>2018-01-18T12:50:11Z</time>
      </trkpt>
      <trkpt lat="45.04855" lon="0.59783">
        <ele>185.67</ele>
        <time>2018-01-18T12:50:25Z</time>
      </trkpt>
      <trkpt lat="45.04871" lon="0.5979">
        <ele>186.63</ele>
        <time>2018-01-18T12:50:39Z</time>
      </trkpt>
      <trkpt lat="45.04884" lon="0.59806">
        <ele>186.63</ele>
        <time>2018-01-18T12:50:55Z</time>
      </trkpt>
      <trkpt lat="45.04897" lon="0.59824">
        <ele>187.11</ele>
        <time>2018-01-18T12:51:11Z</time>
      </trkpt>
      <trkpt lat="45.04897" lon="0.5984">
        <ele>187.11</ele>
        <time>2018-01-18T12:51:26Z</time>
      </trkpt>
      <trkpt lat="45.04885" lon="0.59854">
        <ele>187.59</ele>
        <time>2018-01-18T12:51:41Z</time>
      </trkpt>
      <trkpt lat="45.04872" lon="0.59873">
        <ele>189.04</ele>
        <time>2018-01-18T12:51:58Z</time>
      </trkpt>
      <trkpt lat="45.04874" lon="0.59876">
        <ele>189.04</ele>
        <time>2018-01-18T12:52:06Z</time>
      </trkpt>
      <trkpt lat="45.04886" lon="0.59871">
        <ele>187.59</ele>
        <time>2018-01-18T12:52:18Z</time>
      </trkpt>
      <trkpt lat="45.04901" lon="0.59865">
        <ele>186.15</ele>
        <time>2018-01-18T12:52:32Z</time>
      </trkpt>
      <trkpt lat="45.04918" lon="0.59864">
        <ele>184.23</ele>
        <time>2018-01-18T12:52:47Z</time>
      </trkpt>
      <trkpt lat="45.04943" lon="0.59864">
        <ele>182.79</ele>
        <time>2018-01-18T12:53:05Z</time>
      </trkpt>
      <trkpt lat="45.04972" lon="0.59869">
        <ele>182.31</ele>
        <time>2018-01-18T12:53:25Z</time>
      </trkpt>
      <trkpt lat="45.04994" lon="0.59875">
        <ele>182.31</ele>
        <time>2018-01-18T12:53:42Z</time>
      </trkpt>
      <trkpt lat="45.05013" lon="0.59883">
        <ele>181.83</ele>
        <time>2018-01-18T12:53:58Z</time>
      </trkpt>
      <trkpt lat="45.0503" lon="0.59898">
        <ele>181.83</ele>
        <time>2018-01-18T12:54:14Z</time>
      </trkpt>
      <trkpt lat="45.05046" lon="0.59915">
        <ele>181.83</ele>
        <time>2018-01-18T12:54:30Z</time>
      </trkpt>
      <trkpt lat="45.0506" lon="0.59935">
        <ele>183.27</ele>
        <time>2018-01-18T12:54:47Z</time>
      </trkpt>
      <trkpt lat="45.0507" lon="0.59944">
        <ele>184.23</ele>
        <time>2018-01-18T12:54:58Z</time>
      </trkpt>
      <trkpt lat="45.05076" lon="0.59951">
        <ele>184.23</ele>
        <time>2018-01-18T12:55:11Z</time>
      </trkpt>
      <trkpt lat="45.0509" lon="0.59965">
        <ele>184.71</ele>
        <time>2018-01-18T12:55:25Z</time>
      </trkpt>
      <trkpt lat="45.05106" lon="0.59968">
        <ele>185.19</ele>
        <time>2018-01-18T12:55:40Z</time>
      </trkpt>
      <trkpt lat="45.05118" lon="0.59961">
        <ele>183.75</ele>
        <time>2018-01-18T12:55:54Z</time>
      </trkpt>
      <trkpt lat="45.05124" lon="0.59956">
        <ele>183.27</ele>
        <time>2018-01-18T12:56:01Z</time>
      </trkpt>
      <trkpt lat="45.05138" lon="0.59947">
        <ele>181.83</ele>
        <time>2018-01-18T12:56:16Z</time>
      </trkpt>
      <trkpt lat="45.0515" lon="0.59931">
        <ele>180.38</ele>
        <time>2018-01-18T12:56:32Z</time>
      </trkpt>
      <trkpt lat="45.05159" lon="0.59922">
        <ele>179.42</ele>
        <time>2018-01-18T12:56:45Z</time>
      </trkpt>
      <trkpt lat="45.05173" lon="0.59907">
        <ele>178.94</ele>
        <time>2018-01-18T12:57:02Z</time>
      </trkpt>
      <trkpt lat="45.05182" lon="0.59893">
        <ele>177.02</ele>
        <time>2018-01-18T12:57:18Z</time>
      </trkpt>
      <trkpt lat="45.05192" lon="0.59878">
        <ele>176.06</ele>
        <time>2018-01-18T12:57:34Z</time>
      </trkpt>
      <trkpt lat="45.05194" lon="0.59877">
        <ele>175.58</ele>
        <time>2018-01-18T12:57:46Z</time>
      </trkpt>
      <trkpt lat="45.05199" lon="0.59862">
        <ele>173.66</ele>
        <time>2018-01-18T12:57:58Z</time>
      </trkpt>
      <trkpt lat="45.0521" lon="0.59847">
        <ele>172.69</ele>
        <time>2018-01-18T12:58:11Z</time>
      </trkpt>
      <trkpt lat="45.05219" lon="0.59834">
        <ele>170.77</ele>
        <time>2018-01-18T12:58:25Z</time>
      </trkpt>
      <trkpt lat="45.0523" lon="0.59821">
        <ele>167.89</ele>
        <time>2018-01-18T12:58:42Z</time>
      </trkpt>
      <trkpt lat="45.05242" lon="0.59807">
        <ele>165.96</ele>
        <time>2018-01-18T12:58:58Z</time>
      </trkpt>
      <trkpt lat="45.0525" lon="0.59795">
        <ele>164.04</ele>
        <time>2018-01-18T12:59:11Z</time>
      </trkpt>
      <trkpt lat="45.05257" lon="0.59784">
        <ele>162.6</ele>
        <time>2018-01-18T12:59:24Z</time>
      </trkpt>
      <trkpt lat="45.05263" lon="0.59768">
        <ele>160.68</ele>
        <time>2018-01-18T12:59:38Z</time>
      </trkpt>
      <trkpt lat="45.0527" lon="0.5975">
        <ele>158.27</ele>
        <time>2018-01-18T12:59:52Z</time>
      </trkpt>
      <trkpt lat="45.05272" lon="0.5974">
        <ele>156.35</ele>
        <time>2018-01-18T13:00:05Z</time>
      </trkpt>
      <trkpt lat="45.05274" lon="0.59734">
        <ele>155.87</ele>
        <time>2018-01-18T13:00:18Z</time>
      </trkpt>
      <trkpt lat="45.05278" lon="0.59726">
        <ele>154.43</ele>
        <time>2018-01-18T13:00:32Z</time>
      </trkpt>
      <trkpt lat="45.05283" lon="0.59714">
        <ele>152.51</ele>
        <time>2018-01-18T13:00:48Z</time>
      </trkpt>
      <trkpt lat="45.05288" lon="0.59702">
        <ele>150.1</ele>
        <time>2018-01-18T13:01:02Z</time>
      </trkpt>
      <trkpt lat="45.0529" lon="0.59696">
        <ele>149.14</ele>
        <time>2018-01-18T13:01:14Z</time>
      </trkpt>
      <trkpt lat="45.05294" lon="0.59685">
        <ele>147.22</ele>
        <time>2018-01-18T13:01:27Z</time>
      </trkpt>
      <trkpt lat="45.05299" lon="0.59678">
        <ele>146.74</ele>
        <time>2018-01-18T13:01:42Z</time>
      </trkpt>
      <trkpt lat="45.053" lon="0.59678">
        <ele>146.74</ele>
        <time>2018-01-18T13:02:10Z</time>
      </trkpt>
      <trkpt lat="45.05309" lon="0.59676">
        <ele>146.74</ele>
        <time>2018-01-18T13:02:27Z</time>
      </trkpt>
      <trkpt lat="45.05316" lon="0.59674">
        <ele>145.78</ele>
        <time>2018-01-18T13:02:41Z</time>
      </trkpt>
      <trkpt lat="45.05318" lon="0.59672">
        <ele>145.3</ele>
        <time>2018-01-18T13:03:00Z</time>
      </trkpt>
      <trkpt lat="45.05317" lon="0.59675">
        <ele>145.3</ele>
        <time>2018-01-18T13:03:28Z</time>
      </trkpt>
      <trkpt lat="45.05326" lon="0.59657">
        <ele>145.3</ele>
        <time>2018-01-18T13:03:43Z</time>
      </trkpt>
      <trkpt lat="45.05331" lon="0.59641">
        <ele>144.82</ele>
        <time>2018-01-18T13:03:56Z</time>
      </trkpt>
      <trkpt lat="45.05345" lon="0.59637">
        <ele>144.34</ele>
        <time>2018-01-18T13:04:12Z</time>
      </trkpt>
      <trkpt lat="45.05355" lon="0.59633">
        <ele>144.34</ele>
        <time>2018-01-18T13:04:25Z</time>
      </trkpt>
      <trkpt lat="45.05367" lon="0.59627">
        <ele>144.34</ele>
        <time>2018-01-18T13:04:39Z</time>
      </trkpt>
      <trkpt lat="45.05378" lon="0.59618">
        <ele>143.85</ele>
        <time>2018-01-18T13:04:55Z</time>
      </trkpt>
      <trkpt lat="45.05389" lon="0.59611">
        <ele>143.85</ele>
        <time>2018-01-18T13:05:12Z</time>
      </trkpt>
      <trkpt lat="45.054" lon="0.59605">
        <ele>143.37</ele>
        <time>2018-01-18T13:05:25Z</time>
      </trkpt>
      <trkpt lat="45.05401" lon="0.59604">
        <ele>143.37</ele>
        <time>2018-01-18T13:05:27Z</time>
      </trkpt>
      <trkpt lat="45.05409" lon="0.59599">
        <ele>144.82</ele>
        <time>2018-01-18T13:05:35Z</time>
      </trkpt>
      <trkpt lat="45.05421" lon="0.59591">
        <ele>145.3</ele>
        <time>2018-01-18T13:05:51Z</time>
      </trkpt>
      <trkpt lat="45.05431" lon="0.59584">
        <ele>144.82</ele>
        <time>2018-01-18T13:06:09Z</time>
      </trkpt>
      <trkpt lat="45.05434" lon="0.59586">
        <ele>145.3</ele>
        <time>2018-01-18T13:06:26Z</time>
      </trkpt>
      <trkpt lat="45.05435" lon="0.59587">
        <ele>145.3</ele>
        <time>2018-01-18T13:06:48Z</time>
      </trkpt>
      <trkpt lat="45.05437" lon="0.59587">
        <ele>145.3</ele>
        <time>2018-01-18T13:07:16Z</time>
      </trkpt>
      <trkpt lat="45.05439" lon="0.59587">
        <ele>146.26</ele>
        <time>2018-01-18T13:07:40Z</time>
      </trkpt>
      <trkpt lat="45.05439" lon="0.59586">
        <ele>146.26</ele>
        <time>2018-01-18T13:08:07Z</time>
      </trkpt>
      <trkpt lat="45.0544" lon="0.59591">
        <ele>146.26</ele>
        <time>2018-01-18T13:08:17Z</time>
      </trkpt>
      <trkpt lat="45.05442" lon="0.5959">
        <ele>145.3</ele>
        <time>2018-01-18T13:08:29Z</time>
      </trkpt>
      <trkpt lat="45.05442" lon="0.59589">
        <ele>144.82</ele>
        <time>2018-01-18T13:08:43Z</time>
      </trkpt>
      <trkpt lat="45.05442" lon="0.59589">
        <ele>144.82</ele>
        <time>2018-01-18T13:09:13Z</time>
      </trkpt>
      <trkpt lat="45.05454" lon="0.59586">
        <ele>144.34</ele>
        <time>2018-01-18T13:09:28Z</time>
      </trkpt>
      <trkpt lat="45.05467" lon="0.59581">
        <ele>144.34</ele>
        <time>2018-01-18T13:09:44Z</time>
      </trkpt>
      <trkpt lat="45.05483" lon="0.59581">
        <ele>144.34</ele>
        <time>2018-01-18T13:09:59Z</time>
      </trkpt>
      <trkpt lat="45.05485" lon="0.59595">
        <ele>142.89</ele>
        <time>2018-01-18T13:10:13Z</time>
      </trkpt>
      <trkpt lat="45.0549" lon="0.59607">
        <ele>140.97</ele>
        <time>2018-01-18T13:10:27Z</time>
      </trkpt>
      <trkpt lat="45.05506" lon="0.59608">
        <ele>140.01</ele>
        <time>2018-01-18T13:10:41Z</time>
      </trkpt>
      <trkpt lat="45.05518" lon="0.59613">
        <ele>139.53</ele>
        <time>2018-01-18T13:10:53Z</time>
      </trkpt>
      <trkpt lat="45.05533" lon="0.59618">
        <ele>139.05</ele>
        <time>2018-01-18T13:11:07Z</time>
      </trkpt>
      <trkpt lat="45.05544" lon="0.59624">
        <ele>138.57</ele>
        <time>2018-01-18T13:11:20Z</time>
      </trkpt>
      <trkpt lat="45.05558" lon="0.59634">
        <ele>138.57</ele>
        <time>2018-01-18T13:11:34Z</time>
      </trkpt>
      <trkpt lat="45.05573" lon="0.59646">
        <ele>138.09</ele>
        <time>2018-01-18T13:11:48Z</time>
      </trkpt>
      <trkpt lat="45.05587" lon="0.59657">
        <ele>138.09</ele>
        <time>2018-01-18T13:12:01Z</time>
      </trkpt>
      <trkpt lat="45.05601" lon="0.59671">
        <ele>137.61</ele>
        <time>2018-01-18T13:12:17Z</time>
      </trkpt>
      <trkpt lat="45.05614" lon="0.59683">
        <ele>137.13</ele>
        <time>2018-01-18T13:12:32Z</time>
      </trkpt>
      <trkpt lat="45.05628" lon="0.59694">
        <ele>136.64</ele>
        <time>2018-01-18T13:12:48Z</time>
      </trkpt>
      <trkpt lat="45.0564" lon="0.59704">
        <ele>136.64</ele>
        <time>2018-01-18T13:13:01Z</time>
      </trkpt>
      <trkpt lat="45.05649" lon="0.59711">
        <ele>136.64</ele>
        <time>2018-01-18T13:13:12Z</time>
      </trkpt>
      <trkpt lat="45.05664" lon="0.59724">
        <ele>137.13</ele>
        <time>2018-01-18T13:13:27Z</time>
      </trkpt>
      <trkpt lat="45.05673" lon="0.59732">
        <ele>136.64</ele>
        <time>2018-01-18T13:13:39Z</time>
      </trkpt>
      <trkpt lat="45.05687" lon="0.59737">
        <ele>136.16</ele>
        <time>2018-01-18T13:13:51Z</time>
      </trkpt>
      <trkpt lat="45.05699" lon="0.59747">
        <ele>135.2</ele>
        <time>2018-01-18T13:14:05Z</time>
      </trkpt>
      <trkpt lat="45.05713" lon="0.5976">
        <ele>133.76</ele>
        <time>2018-01-18T13:14:20Z</time>
      </trkpt>
      <trkpt lat="45.05719" lon="0.59769">
        <ele>134.24</ele>
        <time>2018-01-18T13:14:34Z</time>
      </trkpt>
      <trkpt lat="45.05736" lon="0.59774">
        <ele>135.2</ele>
        <time>2018-01-18T13:14:49Z</time>
      </trkpt>
      <trkpt lat="45.05743" lon="0.59777">
        <ele>135.2</ele>
        <time>2018-01-18T13:14:57Z</time>
      </trkpt>
      <trkpt lat="45.0575" lon="0.59779">
        <ele>135.68</ele>
        <time>2018-01-18T13:15:04Z</time>
      </trkpt>
      <trkpt lat="45.05764" lon="0.59781">
        <ele>135.68</ele>
        <time>2018-01-18T13:15:20Z</time>
      </trkpt>
      <trkpt lat="45.05779" lon="0.59774">
        <ele>135.68</ele>
        <time>2018-01-18T13:15:33Z</time>
      </trkpt>
      <trkpt lat="45.05782" lon="0.5977">
        <ele>134.24</ele>
        <time>2018-01-18T13:15:37Z</time>
      </trkpt>
      <trkpt lat="45.05795" lon="0.5976">
        <ele>132.32</ele>
        <time>2018-01-18T13:15:53Z</time>
      </trkpt>
      <trkpt lat="45.05807" lon="0.59756">
        <ele>132.32</ele>
        <time>2018-01-18T13:16:06Z</time>
      </trkpt>
      <trkpt lat="45.05808" lon="0.59756">
        <ele>132.32</ele>
        <time>2018-01-18T13:16:07Z</time>
      </trkpt>
      <trkpt lat="45.05821" lon="0.59757">
        <ele>131.84</ele>
        <time>2018-01-18T13:16:21Z</time>
      </trkpt>
      <trkpt lat="45.05824" lon="0.59759">
        <ele>131.84</ele>
        <time>2018-01-18T13:16:25Z</time>
      </trkpt>
      <trkpt lat="45.05836" lon="0.59765">
        <ele>131.84</ele>
        <time>2018-01-18T13:16:38Z</time>
      </trkpt>
      <trkpt lat="45.05846" lon="0.59769">
        <ele>131.36</ele>
        <time>2018-01-18T13:16:50Z</time>
      </trkpt>
      <trkpt lat="45.05858" lon="0.59779">
        <ele>131.36</ele>
        <time>2018-01-18T13:17:03Z</time>
      </trkpt>
      <trkpt lat="45.05858" lon="0.5978">
        <ele>131.36</ele>
        <time>2018-01-18T13:17:04Z</time>
      </trkpt>
      <trkpt lat="45.05875" lon="0.59796">
        <ele>131.36</ele>
        <time>2018-01-18T13:17:18Z</time>
      </trkpt>
      <trkpt lat="45.05888" lon="0.59801">
        <ele>132.32</ele>
        <time>2018-01-18T13:17:32Z</time>
      </trkpt>
      <trkpt lat="45.05896" lon="0.59803">
        <ele>132.32</ele>
        <time>2018-01-18T13:17:40Z</time>
      </trkpt>
      <trkpt lat="45.05912" lon="0.59802">
        <ele>132.32</ele>
        <time>2018-01-18T13:17:54Z</time>
      </trkpt>
      <trkpt lat="45.05923" lon="0.59803">
        <ele>130.88</ele>
        <time>2018-01-18T13:18:06Z</time>
      </trkpt>
      <trkpt lat="45.05939" lon="0.59805">
        <ele>129.92</ele>
        <time>2018-01-18T13:18:21Z</time>
      </trkpt>
      <trkpt lat="45.05946" lon="0.59806">
        <ele>129.43</ele>
        <time>2018-01-18T13:18:27Z</time>
      </trkpt>
      <trkpt lat="45.05959" lon="0.59807">
        <ele>128.47</ele>
        <time>2018-01-18T13:18:38Z</time>
      </trkpt>
      <trkpt lat="45.05975" lon="0.59811">
        <ele>127.51</ele>
        <time>2018-01-18T13:18:53Z</time>
      </trkpt>
      <trkpt lat="45.05978" lon="0.59812">
        <ele>127.51</ele>
        <time>2018-01-18T13:18:56Z</time>
      </trkpt>
      <trkpt lat="45.05993" lon="0.59822">
        <ele>127.03</ele>
        <time>2018-01-18T13:19:11Z</time>
      </trkpt>
      <trkpt lat="45.06005" lon="0.5983">
        <ele>126.55</ele>
        <time>2018-01-18T13:19:25Z</time>
      </trkpt>
      <trkpt lat="45.06019" lon="0.59841">
        <ele>126.55</ele>
        <time>2018-01-18T13:19:40Z</time>
      </trkpt>
      <trkpt lat="45.06023" lon="0.59844">
        <ele>126.55</ele>
        <time>2018-01-18T13:19:43Z</time>
      </trkpt>
      <trkpt lat="45.06033" lon="0.59853">
        <ele>126.55</ele>
        <time>2018-01-18T13:19:54Z</time>
      </trkpt>
      <trkpt lat="45.06035" lon="0.59854">
        <ele>126.55</ele>
        <time>2018-01-18T13:19:56Z</time>
      </trkpt>
      <trkpt lat="45.0605" lon="0.59864">
        <ele>126.55</ele>
        <time>2018-01-18T13:20:11Z</time>
      </trkpt>
      <trkpt lat="45.06061" lon="0.59871">
        <ele>126.55</ele>
        <time>2018-01-18T13:20:23Z</time>
      </trkpt>
      <trkpt lat="45.06072" lon="0.59877">
        <ele>126.55</ele>
        <time>2018-01-18T13:20:35Z</time>
      </trkpt>
      <trkpt lat="45.06085" lon="0.59884">
        <ele>126.55</ele>
        <time>2018-01-18T13:20:48Z</time>
      </trkpt>
      <trkpt lat="45.06101" lon="0.59892">
        <ele>126.55</ele>
        <time>2018-01-18T13:21:02Z</time>
      </trkpt>
      <trkpt lat="45.06105" lon="0.59894">
        <ele>126.55</ele>
        <time>2018-01-18T13:21:06Z</time>
      </trkpt>
      <trkpt lat="45.06107" lon="0.59894">
        <ele>126.55</ele>
        <time>2018-01-18T13:21:08Z</time>
      </trkpt>
      <trkpt lat="45.06122" lon="0.59895">
        <ele>126.55</ele>
        <time>2018-01-18T13:21:23Z</time>
      </trkpt>
      <trkpt lat="45.06135" lon="0.59894">
        <ele>127.51</ele>
        <time>2018-01-18T13:21:36Z</time>
      </trkpt>
      <trkpt lat="45.06149" lon="0.59896">
        <ele>127.51</ele>
        <time>2018-01-18T13:21:49Z</time>
      </trkpt>
      <trkpt lat="45.06151" lon="0.59896">
        <ele>127.51</ele>
        <time>2018-01-18T13:21:51Z</time>
      </trkpt>
      <trkpt lat="45.0617" lon="0.59894">
        <ele>127.99</ele>
        <time>2018-01-18T13:22:09Z</time>
      </trkpt>
      <trkpt lat="45.06184" lon="0.59893">
        <ele>127.99</ele>
        <time>2018-01-18T13:22:22Z</time>
      </trkpt>
      <trkpt lat="45.06197" lon="0.59894">
        <ele>127.99</ele>
        <time>2018-01-18T13:22:36Z</time>
      </trkpt>
      <trkpt lat="45.06201" lon="0.59894">
        <ele>127.99</ele>
        <time>2018-01-18T13:22:39Z</time>
      </trkpt>
      <trkpt lat="45.06209" lon="0.59893">
        <ele>128.47</ele>
        <time>2018-01-18T13:22:46Z</time>
      </trkpt>
      <trkpt lat="45.06211" lon="0.59893">
        <ele>128.47</ele>
        <time>2018-01-18T13:22:48Z</time>
      </trkpt>
      <trkpt lat="45.06213" lon="0.59892">
        <ele>128.95</ele>
        <time>2018-01-18T13:22:52Z</time>
      </trkpt>
      <trkpt lat="45.06214" lon="0.59893">
        <ele>128.95</ele>
        <time>2018-01-18T13:23:05Z</time>
      </trkpt>
      <trkpt lat="45.06214" lon="0.59894">
        <ele>128.95</ele>
        <time>2018-01-18T13:23:29Z</time>
      </trkpt>
      <trkpt lat="45.06214" lon="0.59892">
        <ele>128.95</ele>
        <time>2018-01-18T13:23:50Z</time>
      </trkpt>
      <trkpt lat="45.06213" lon="0.59893">
        <ele>128.95</ele>
        <time>2018-01-18T13:24:11Z</time>
      </trkpt>
      <trkpt lat="45.06208" lon="0.59895">
        <ele>128.95</ele>
        <time>2018-01-18T13:24:25Z</time>
      </trkpt>
      <trkpt lat="45.06203" lon="0.59899">
        <ele>128.95</ele>
        <time>2018-01-18T13:24:39Z</time>
      </trkpt>
      <trkpt lat="45.062" lon="0.59898">
        <ele>128.47</ele>
        <time>2018-01-18T13:25:05Z</time>
      </trkpt>
      <trkpt lat="45.06202" lon="0.59896">
        <ele>128.47</ele>
        <time>2018-01-18T13:25:30Z</time>
      </trkpt>
      <trkpt lat="45.06204" lon="0.59895">
        <ele>128.47</ele>
        <time>2018-01-18T13:25:32Z</time>
      </trkpt>
      <trkpt lat="45.06206" lon="0.59893">
        <ele>128.47</ele>
        <time>2018-01-18T13:25:34Z</time>
      </trkpt>
      <trkpt lat="45.06213" lon="0.5989">
        <ele>128.47</ele>
        <time>2018-01-18T13:25:49Z</time>
      </trkpt>
      <trkpt lat="45.06217" lon="0.5989">
        <ele>128.47</ele>
        <time>2018-01-18T13:26:06Z</time>
      </trkpt>
      <trkpt lat="45.06228" lon="0.599">
        <ele>128.47</ele>
        <time>2018-01-18T13:26:20Z</time>
      </trkpt>
      <trkpt lat="45.06232" lon="0.59904">
        <ele>128.47</ele>
        <time>2018-01-18T13:26:25Z</time>
      </trkpt>
      <trkpt lat="45.06242" lon="0.59915">
        <ele>127.03</ele>
        <time>2018-01-18T13:26:37Z</time>
      </trkpt>
      <trkpt lat="45.06257" lon="0.59932">
        <ele>126.07</ele>
        <time>2018-01-18T13:26:53Z</time>
      </trkpt>
      <trkpt lat="45.06274" lon="0.59951">
        <ele>125.59</ele>
        <time>2018-01-18T13:27:12Z</time>
      </trkpt>
      <trkpt lat="45.06283" lon="0.59962">
        <ele>124.63</ele>
        <time>2018-01-18T13:27:22Z</time>
      </trkpt>
      <trkpt lat="45.06293" lon="0.59972">
        <ele>124.15</ele>
        <time>2018-01-18T13:27:33Z</time>
      </trkpt>
      <trkpt lat="45.06297" lon="0.59977">
        <ele>123.67</ele>
        <time>2018-01-18T13:27:37Z</time>
      </trkpt>
      <trkpt lat="45.06313" lon="0.59994">
        <ele>123.67</ele>
        <time>2018-01-18T13:27:54Z</time>
      </trkpt>
      <trkpt lat="45.0632" lon="0.60001">
        <ele>123.19</ele>
        <time>2018-01-18T13:28:02Z</time>
      </trkpt>
      <trkpt lat="45.06331" lon="0.60012">
        <ele>122.71</ele>
        <time>2018-01-18T13:28:14Z</time>
      </trkpt>
      <trkpt lat="45.06345" lon="0.60027">
        <ele>121.74</ele>
        <time>2018-01-18T13:28:30Z</time>
      </trkpt>
      <trkpt lat="45.06348" lon="0.6003">
        <ele>121.74</ele>
        <time>2018-01-18T13:28:33Z</time>
      </trkpt>
      <trkpt lat="45.06362" lon="0.60043">
        <ele>121.74</ele>
        <time>2018-01-18T13:28:49Z</time>
      </trkpt>
      <trkpt lat="45.06365" lon="0.60047">
        <ele>121.26</ele>
        <time>2018-01-18T13:28:53Z</time>
      </trkpt>
      <trkpt lat="45.06367" lon="0.60048">
        <ele>121.26</ele>
        <time>2018-01-18T13:28:55Z</time>
      </trkpt>
      <trkpt lat="45.06382" lon="0.60062">
        <ele>120.78</ele>
        <time>2018-01-18T13:29:11Z</time>
      </trkpt>
      <trkpt lat="45.06397" lon="0.60075">
        <ele>120.3</ele>
        <time>2018-01-18T13:29:27Z</time>
      </trkpt>
      <trkpt lat="45.0641" lon="0.60085">
        <ele>119.34</ele>
        <time>2018-01-18T13:29:43Z</time>
      </trkpt>
      <trkpt lat="45.06411" lon="0.60088">
        <ele>119.34</ele>
        <time>2018-01-18T13:29:46Z</time>
      </trkpt>
      <trkpt lat="45.06411" lon="0.60091">
        <ele>118.86</ele>
        <time>2018-01-18T13:29:48Z</time>
      </trkpt>
      <trkpt lat="45.06404" lon="0.60101">
        <ele>118.86</ele>
        <time>2018-01-18T13:29:56Z</time>
      </trkpt>
      <trkpt lat="45.06399" lon="0.6011">
        <ele>118.38</ele>
        <time>2018-01-18T13:30:03Z</time>
      </trkpt>
      <trkpt lat="45.06388" lon="0.60133">
        <ele>116.94</ele>
        <time>2018-01-18T13:30:20Z</time>
      </trkpt>
      <trkpt lat="45.06378" lon="0.60154">
        <ele>116.46</ele>
        <time>2018-01-18T13:30:37Z</time>
      </trkpt>
      <trkpt lat="45.0637" lon="0.60166">
        <ele>116.46</ele>
        <time>2018-01-18T13:30:50Z</time>
      </trkpt>
      <trkpt lat="45.0637" lon="0.60171">
        <ele>116.46</ele>
        <time>2018-01-18T13:31:00Z</time>
      </trkpt>
      <trkpt lat="45.06365" lon="0.6019">
        <ele>115.5</ele>
        <time>2018-01-18T13:31:15Z</time>
      </trkpt>
      <trkpt lat="45.0636" lon="0.60204">
        <ele>115.5</ele>
        <time>2018-01-18T13:31:25Z</time>
      </trkpt>
      <trkpt lat="45.0635" lon="0.6022">
        <ele>115.01</ele>
        <time>2018-01-18T13:31:39Z</time>
      </trkpt>
      <trkpt lat="45.06335" lon="0.60242">
        <ele>115.01</ele>
        <time>2018-01-18T13:31:57Z</time>
      </trkpt>
      <trkpt lat="45.0632" lon="0.60263">
        <ele>115.01</ele>
        <time>2018-01-18T13:32:15Z</time>
      </trkpt>
      <trkpt lat="45.06305" lon="0.60286">
        <ele>115.98</ele>
        <time>2018-01-18T13:32:33Z</time>
      </trkpt>
      <trkpt lat="45.06291" lon="0.60307">
        <ele>115.98</ele>
        <time>2018-01-18T13:32:51Z</time>
      </trkpt>
      <trkpt lat="45.06278" lon="0.60326">
        <ele>115.98</ele>
        <time>2018-01-18T13:33:07Z</time>
      </trkpt>
      <trkpt lat="45.06262" lon="0.60348">
        <ele>115.98</ele>
        <time>2018-01-18T13:33:25Z</time>
      </trkpt>
      <trkpt lat="45.06247" lon="0.60372">
        <ele>116.94</ele>
        <time>2018-01-18T13:33:45Z</time>
      </trkpt>
      <trkpt lat="45.06235" lon="0.60396">
        <ele>117.42</ele>
        <time>2018-01-18T13:34:03Z</time>
      </trkpt>
      <trkpt lat="45.06226" lon="0.60419">
        <ele>117.9</ele>
        <time>2018-01-18T13:34:19Z</time>
      </trkpt>
      <trkpt lat="45.06216" lon="0.60446">
        <ele>118.38</ele>
        <time>2018-01-18T13:34:38Z</time>
      </trkpt>
      <trkpt lat="45.06206" lon="0.60475">
        <ele>117.9</ele>
        <time>2018-01-18T13:34:57Z</time>
      </trkpt>
      <trkpt lat="45.06199" lon="0.60501">
        <ele>118.38</ele>
        <time>2018-01-18T13:35:15Z</time>
      </trkpt>
      <trkpt lat="45.0619" lon="0.60528">
        <ele>118.38</ele>
        <time>2018-01-18T13:35:31Z</time>
      </trkpt>
      <trkpt lat="45.06183" lon="0.60552">
        <ele>118.86</ele>
        <time>2018-01-18T13:35:47Z</time>
      </trkpt>
      <trkpt lat="45.0618" lon="0.60561">
        <ele>118.86</ele>
        <time>2018-01-18T13:35:52Z</time>
      </trkpt>
      <trkpt lat="45.06172" lon="0.60588">
        <ele>119.34</ele>
        <time>2018-01-18T13:36:09Z</time>
      </trkpt>
      <trkpt lat="45.06163" lon="0.60615">
        <ele>119.82</ele>
        <time>2018-01-18T13:36:26Z</time>
      </trkpt>
      <trkpt lat="45.06154" lon="0.60641">
        <ele>119.82</ele>
        <time>2018-01-18T13:36:42Z</time>
      </trkpt>
      <trkpt lat="45.0615" lon="0.60655">
        <ele>119.82</ele>
        <time>2018-01-18T13:36:51Z</time>
      </trkpt>
      <trkpt lat="45.06142" lon="0.6068">
        <ele>119.82</ele>
        <time>2018-01-18T13:37:06Z</time>
      </trkpt>
      <trkpt lat="45.06139" lon="0.60701">
        <ele>119.82</ele>
        <time>2018-01-18T13:37:21Z</time>
      </trkpt>
      <trkpt lat="45.06131" lon="0.60722">
        <ele>119.82</ele>
        <time>2018-01-18T13:37:35Z</time>
      </trkpt>
      <trkpt lat="45.0612" lon="0.60748">
        <ele>120.3</ele>
        <time>2018-01-18T13:37:52Z</time>
      </trkpt>
      <trkpt lat="45.06111" lon="0.60774">
        <ele>120.3</ele>
        <time>2018-01-18T13:38:08Z</time>
      </trkpt>
      <trkpt lat="45.06103" lon="0.60802">
        <ele>121.26</ele>
        <time>2018-01-18T13:38:26Z</time>
      </trkpt>
      <trkpt lat="45.06097" lon="0.60829">
        <ele>121.74</ele>
        <time>2018-01-18T13:38:43Z</time>
      </trkpt>
      <trkpt lat="45.06092" lon="0.60855">
        <ele>123.19</ele>
        <time>2018-01-18T13:39:00Z</time>
      </trkpt>
      <trkpt lat="45.06086" lon="0.60885">
        <ele>124.15</ele>
        <time>2018-01-18T13:39:18Z</time>
      </trkpt>
      <trkpt lat="45.06085" lon="0.60893">
        <ele>124.15</ele>
        <time>2018-01-18T13:39:23Z</time>
      </trkpt>
      <trkpt lat="45.06083" lon="0.60907">
        <ele>124.63</ele>
        <time>2018-01-18T13:39:32Z</time>
      </trkpt>
      <trkpt lat="45.06081" lon="0.60917">
        <ele>125.11</ele>
        <time>2018-01-18T13:39:38Z</time>
      </trkpt>
      <trkpt lat="45.06079" lon="0.60933">
        <ele>126.07</ele>
        <time>2018-01-18T13:39:48Z</time>
      </trkpt>
      <trkpt lat="45.0608" lon="0.60938">
        <ele>126.07</ele>
        <time>2018-01-18T13:39:54Z</time>
      </trkpt>
      <trkpt lat="45.06078" lon="0.60949">
        <ele>126.07</ele>
        <time>2018-01-18T13:40:02Z</time>
      </trkpt>
      <trkpt lat="45.06076" lon="0.60953">
        <ele>126.07</ele>
        <time>2018-01-18T13:40:05Z</time>
      </trkpt>
      <trkpt lat="45.0607" lon="0.6098">
        <ele>127.03</ele>
        <time>2018-01-18T13:40:22Z</time>
      </trkpt>
      <trkpt lat="45.06066" lon="0.60998">
        <ele>128.47</ele>
        <time>2018-01-18T13:40:36Z</time>
      </trkpt>
      <trkpt lat="45.06064" lon="0.61008">
        <ele>128.47</ele>
        <time>2018-01-18T13:40:44Z</time>
      </trkpt>
      <trkpt lat="45.06061" lon="0.61024">
        <ele>128.95</ele>
        <time>2018-01-18T13:40:54Z</time>
      </trkpt>
      <trkpt lat="45.0606" lon="0.6103">
        <ele>129.92</ele>
        <time>2018-01-18T13:40:58Z</time>
      </trkpt>
      <trkpt lat="45.06059" lon="0.61034">
        <ele>130.4</ele>
        <time>2018-01-18T13:41:01Z</time>
      </trkpt>
      <trkpt lat="45.06057" lon="0.61044">
        <ele>130.88</ele>
        <time>2018-01-18T13:41:07Z</time>
      </trkpt>
      <trkpt lat="45.06055" lon="0.6105">
        <ele>131.84</ele>
        <time>2018-01-18T13:41:11Z</time>
      </trkpt>
      <trkpt lat="45.06053" lon="0.61054">
        <ele>131.84</ele>
        <time>2018-01-18T13:41:14Z</time>
      </trkpt>
      <trkpt lat="45.0605" lon="0.61065">
        <ele>132.8</ele>
        <time>2018-01-18T13:41:21Z</time>
      </trkpt>
      <trkpt lat="45.06047" lon="0.61074">
        <ele>133.28</ele>
        <time>2018-01-18T13:41:27Z</time>
      </trkpt>
      <trkpt lat="45.06044" lon="0.61091">
        <ele>134.24</ele>
        <time>2018-01-18T13:41:41Z</time>
      </trkpt>
      <trkpt lat="45.06044" lon="0.61097">
        <ele>134.72</ele>
        <time>2018-01-18T13:41:54Z</time>
      </trkpt>
      <trkpt lat="45.06045" lon="0.61095">
        <ele>134.72</ele>
        <time>2018-01-18T13:42:17Z</time>
      </trkpt>
      <trkpt lat="45.06044" lon="0.61094">
        <ele>134.72</ele>
        <time>2018-01-18T13:42:27Z</time>
      </trkpt>
      <trkpt lat="45.06045" lon="0.61095">
        <ele>134.72</ele>
        <time>2018-01-18T13:42:43Z</time>
      </trkpt>
      <trkpt lat="45.06045" lon="0.61093">
        <ele>134.72</ele>
        <time>2018-01-18T13:43:06Z</time>
      </trkpt>
      <trkpt lat="45.06046" lon="0.61094">
        <ele>134.72</ele>
        <time>2018-01-18T13:43:27Z</time>
      </trkpt>
      <trkpt lat="45.06042" lon="0.61096">
        <ele>134.72</ele>
        <time>2018-01-18T13:43:42Z</time>
      </trkpt>
      <trkpt lat="45.06039" lon="0.61095">
        <ele>134.72</ele>
        <time>2018-01-18T13:43:51Z</time>
      </trkpt>
      <trkpt lat="45.06036" lon="0.61097">
        <ele>134.72</ele>
        <time>2018-01-18T13:44:05Z</time>
      </trkpt>
      <trkpt lat="45.06041" lon="0.61094">
        <ele>134.72</ele>
        <time>2018-01-18T13:44:21Z</time>
      </trkpt>
      <trkpt lat="45.06042" lon="0.61099">
        <ele>134.72</ele>
        <time>2018-01-18T13:44:33Z</time>
      </trkpt>
      <trkpt lat="45.06046" lon="0.61099">
        <ele>134.72</ele>
        <time>2018-01-18T13:44:55Z</time>
      </trkpt>
      <trkpt lat="45.06049" lon="0.61096">
        <ele>134.72</ele>
        <time>2018-01-18T13:45:09Z</time>
      </trkpt>
      <trkpt lat="45.06048" lon="0.61094">
        <ele>134.72</ele>
        <time>2018-01-18T13:45:30Z</time>
      </trkpt>
      <trkpt lat="45.06049" lon="0.61093">
        <ele>134.72</ele>
        <time>2018-01-18T13:45:47Z</time>
      </trkpt>
      <trkpt lat="45.06051" lon="0.61095">
        <ele>134.72</ele>
        <time>2018-01-18T13:46:00Z</time>
      </trkpt>
      <trkpt lat="45.06051" lon="0.61095">
        <ele>133.28</ele>
        <time>2018-01-18T13:46:15Z</time>
      </trkpt>
      <trkpt lat="45.06051" lon="0.61097">
        <ele>134.24</ele>
        <time>2018-01-18T13:46:36Z</time>
      </trkpt>
      <trkpt lat="45.06052" lon="0.61097">
        <ele>134.24</ele>
        <time>2018-01-18T13:46:47Z</time>
      </trkpt>
      <trkpt lat="45.06051" lon="0.61098">
        <ele>134.24</ele>
        <time>2018-01-18T13:47:11Z</time>
      </trkpt>
      <trkpt lat="45.06052" lon="0.61098">
        <ele>134.24</ele>
        <time>2018-01-18T13:47:29Z</time>
      </trkpt>
      <trkpt lat="45.06051" lon="0.61098">
        <ele>133.76</ele>
        <time>2018-01-18T13:47:57Z</time>
      </trkpt>
      <trkpt lat="45.06052" lon="0.61096">
        <ele>133.76</ele>
        <time>2018-01-18T13:48:23Z</time>
      </trkpt>
      <trkpt lat="45.06053" lon="0.611">
        <ele>133.76</ele>
        <time>2018-01-18T13:48:53Z</time>
      </trkpt>
      <trkpt lat="45.06051" lon="0.611">
        <ele>133.76</ele>
        <time>2018-01-18T13:49:19Z</time>
      </trkpt>
      <trkpt lat="45.0605" lon="0.61099">
        <ele>133.76</ele>
        <time>2018-01-18T13:49:43Z</time>
      </trkpt>
      <trkpt lat="45.06052" lon="0.61098">
        <ele>134.24</ele>
        <time>2018-01-18T13:50:15Z</time>
      </trkpt>
      <trkpt lat="45.06051" lon="0.61098">
        <ele>134.24</ele>
        <time>2018-01-18T13:50:48Z</time>
      </trkpt>
      <trkpt lat="45.06051" lon="0.61098">
        <ele>134.24</ele>
        <time>2018-01-18T13:51:17Z</time>
      </trkpt>
      <trkpt lat="45.06049" lon="0.61097">
        <ele>134.24</ele>
        <time>2018-01-18T13:51:52Z</time>
      </trkpt>
      <trkpt lat="45.06048" lon="0.61098">
        <ele>134.72</ele>
        <time>2018-01-18T13:52:20Z</time>
      </trkpt>
      <trkpt lat="45.0605" lon="0.61098">
        <ele>134.72</ele>
        <time>2018-01-18T13:52:57Z</time>
      </trkpt>
      <trkpt lat="45.0605" lon="0.61098">
        <ele>134.72</ele>
        <time>2018-01-18T13:53:23Z</time>
      </trkpt>
      <trkpt lat="45.06048" lon="0.61096">
        <ele>134.72</ele>
        <time>2018-01-18T13:53:55Z</time>
      </trkpt>
      <trkpt lat="45.06051" lon="0.61097">
        <ele>135.2</ele>
        <time>2018-01-18T13:54:29Z</time>
      </trkpt>
      <trkpt lat="45.06049" lon="0.61098">
        <ele>135.2</ele>
        <time>2018-01-18T13:54:58Z</time>
      </trkpt>
      <trkpt lat="45.06051" lon="0.61096">
        <ele>135.2</ele>
        <time>2018-01-18T13:55:30Z</time>
      </trkpt>
      <trkpt lat="45.06052" lon="0.61098">
        <ele>135.68</ele>
        <time>2018-01-18T13:56:03Z</time>
      </trkpt>
      <trkpt lat="45.06051" lon="0.61098">
        <ele>135.68</ele>
        <time>2018-01-18T13:56:35Z</time>
      </trkpt>
      <trkpt lat="45.06052" lon="0.61097">
        <ele>135.68</ele>
        <time>2018-01-18T13:57:05Z</time>
      </trkpt>
      <trkpt lat="45.06051" lon="0.61097">
        <ele>135.68</ele>
        <time>2018-01-18T13:57:37Z</time>
      </trkpt>
      <trkpt lat="45.06051" lon="0.61097">
        <ele>135.68</ele>
        <time>2018-01-18T13:58:05Z</time>
      </trkpt>
      <trkpt lat="45.06048" lon="0.61097">
        <ele>135.68</ele>
        <time>2018-01-18T13:58:28Z</time>
      </trkpt>
      <trkpt lat="45.06048" lon="0.61097">
        <ele>135.68</ele>
        <time>2018-01-18T13:58:55Z</time>
      </trkpt>
      <trkpt lat="45.0605" lon="0.61098">
        <ele>135.68</ele>
        <time>2018-01-18T13:59:16Z</time>
      </trkpt>
      <trkpt lat="45.06051" lon="0.61097">
        <ele>135.68</ele>
        <time>2018-01-18T13:59:43Z</time>
      </trkpt>
      <trkpt lat="45.06051" lon="0.61099">
        <ele>135.68</ele>
        <time>2018-01-18T14:00:04Z</time>
      </trkpt>
      <trkpt lat="45.06041" lon="0.61103">
        <ele>136.16</ele>
        <time>2018-01-18T14:00:18Z</time>
      </trkpt>
      <trkpt lat="45.06039" lon="0.61106">
        <ele>136.16</ele>
        <time>2018-01-18T14:00:22Z</time>
      </trkpt>
      <trkpt lat="45.06036" lon="0.61116">
        <ele>137.13</ele>
        <time>2018-01-18T14:00:35Z</time>
      </trkpt>
      <trkpt lat="45.06028" lon="0.61125">
        <ele>138.09</ele>
        <time>2018-01-18T14:00:47Z</time>
      </trkpt>
      <trkpt lat="45.06017" lon="0.61139">
        <ele>138.09</ele>
        <time>2018-01-18T14:01:02Z</time>
      </trkpt>
      <trkpt lat="45.06008" lon="0.6116">
        <ele>138.57</ele>
        <time>2018-01-18T14:01:18Z</time>
      </trkpt>
      <trkpt lat="45.06007" lon="0.61162">
        <ele>138.57</ele>
        <time>2018-01-18T14:01:19Z</time>
      </trkpt>
      <trkpt lat="45.06004" lon="0.61167">
        <ele>138.57</ele>
        <time>2018-01-18T14:01:23Z</time>
      </trkpt>
      <trkpt lat="45.05993" lon="0.61182">
        <ele>136.64</ele>
        <time>2018-01-18T14:01:36Z</time>
      </trkpt>
      <trkpt lat="45.05984" lon="0.61208">
        <ele>135.68</ele>
        <time>2018-01-18T14:01:53Z</time>
      </trkpt>
      <trkpt lat="45.05984" lon="0.61227">
        <ele>135.2</ele>
        <time>2018-01-18T14:02:05Z</time>
      </trkpt>
      <trkpt lat="45.05991" lon="0.61255">
        <ele>135.2</ele>
        <time>2018-01-18T14:02:22Z</time>
      </trkpt>
      <trkpt lat="45.05995" lon="0.61273">
        <ele>136.64</ele>
        <time>2018-01-18T14:02:35Z</time>
      </trkpt>
      <trkpt lat="45.0599" lon="0.61277">
        <ele>137.61</ele>
        <time>2018-01-18T14:02:47Z</time>
      </trkpt>
      <trkpt lat="45.05974" lon="0.61275">
        <ele>139.53</ele>
        <time>2018-01-18T14:03:03Z</time>
      </trkpt>
      <trkpt lat="45.05963" lon="0.61269">
        <ele>141.45</ele>
        <time>2018-01-18T14:03:17Z</time>
      </trkpt>
      <trkpt lat="45.05952" lon="0.61266">
        <ele>142.89</ele>
        <time>2018-01-18T14:03:30Z</time>
      </trkpt>
      <trkpt lat="45.05937" lon="0.61259">
        <ele>144.82</ele>
        <time>2018-01-18T14:03:46Z</time>
      </trkpt>
      <trkpt lat="45.05923" lon="0.61256">
        <ele>146.26</ele>
        <time>2018-01-18T14:04:01Z</time>
      </trkpt>
      <trkpt lat="45.0591" lon="0.61252">
        <ele>147.22</ele>
        <time>2018-01-18T14:04:16Z</time>
      </trkpt>
      <trkpt lat="45.059" lon="0.61249">
        <ele>148.66</ele>
        <time>2018-01-18T14:04:29Z</time>
      </trkpt>
      <trkpt lat="45.05899" lon="0.61258">
        <ele>150.58</ele>
        <time>2018-01-18T14:04:44Z</time>
      </trkpt>
      <trkpt lat="45.05905" lon="0.61262">
        <ele>151.06</ele>
        <time>2018-01-18T14:04:53Z</time>
      </trkpt>
      <trkpt lat="45.05917" lon="0.61279">
        <ele>152.03</ele>
        <time>2018-01-18T14:05:10Z</time>
      </trkpt>
      <trkpt lat="45.05923" lon="0.61295">
        <ele>154.43</ele>
        <time>2018-01-18T14:05:24Z</time>
      </trkpt>
      <trkpt lat="45.05919" lon="0.61315">
        <ele>155.87</ele>
        <time>2018-01-18T14:05:39Z</time>
      </trkpt>
      <trkpt lat="45.05913" lon="0.61328">
        <ele>157.79</ele>
        <time>2018-01-18T14:05:51Z</time>
      </trkpt>
      <trkpt lat="45.05907" lon="0.61339">
        <ele>159.72</ele>
        <time>2018-01-18T14:06:03Z</time>
      </trkpt>
      <trkpt lat="45.05898" lon="0.61349">
        <ele>160.68</ele>
        <time>2018-01-18T14:06:14Z</time>
      </trkpt>
      <trkpt lat="45.05886" lon="0.61355">
        <ele>162.6</ele>
        <time>2018-01-18T14:06:28Z</time>
      </trkpt>
      <trkpt lat="45.05873" lon="0.61361">
        <ele>165</ele>
        <time>2018-01-18T14:06:45Z</time>
      </trkpt>
      <trkpt lat="45.05862" lon="0.61366">
        <ele>165.96</ele>
        <time>2018-01-18T14:06:59Z</time>
      </trkpt>
      <trkpt lat="45.05856" lon="0.61369">
        <ele>166.93</ele>
        <time>2018-01-18T14:07:07Z</time>
      </trkpt>
      <trkpt lat="45.05843" lon="0.61371">
        <ele>168.37</ele>
        <time>2018-01-18T14:07:21Z</time>
      </trkpt>
      <trkpt lat="45.05834" lon="0.61372">
        <ele>169.33</ele>
        <time>2018-01-18T14:07:34Z</time>
      </trkpt>
      <trkpt lat="45.05824" lon="0.61378">
        <ele>170.77</ele>
        <time>2018-01-18T14:07:49Z</time>
      </trkpt>
      <trkpt lat="45.05811" lon="0.61383">
        <ele>172.21</ele>
        <time>2018-01-18T14:08:04Z</time>
      </trkpt>
      <trkpt lat="45.05796" lon="0.61386">
        <ele>173.66</ele>
        <time>2018-01-18T14:08:19Z</time>
      </trkpt>
      <trkpt lat="45.05783" lon="0.61389">
        <ele>174.62</ele>
        <time>2018-01-18T14:08:34Z</time>
      </trkpt>
      <trkpt lat="45.05772" lon="0.61395">
        <ele>176.06</ele>
        <time>2018-01-18T14:08:47Z</time>
      </trkpt>
      <trkpt lat="45.05761" lon="0.61402">
        <ele>177.5</ele>
        <time>2018-01-18T14:09:01Z</time>
      </trkpt>
      <trkpt lat="45.0575" lon="0.61407">
        <ele>177.98</ele>
        <time>2018-01-18T14:09:13Z</time>
      </trkpt>
      <trkpt lat="45.05736" lon="0.61417">
        <ele>179.42</ele>
        <time>2018-01-18T14:09:29Z</time>
      </trkpt>
      <trkpt lat="45.05725" lon="0.61423">
        <ele>180.38</ele>
        <time>2018-01-18T14:09:42Z</time>
      </trkpt>
      <trkpt lat="45.05713" lon="0.6143">
        <ele>181.35</ele>
        <time>2018-01-18T14:09:56Z</time>
      </trkpt>
      <trkpt lat="45.057" lon="0.61439">
        <ele>181.83</ele>
        <time>2018-01-18T14:10:10Z</time>
      </trkpt>
      <trkpt lat="45.05686" lon="0.61446">
        <ele>182.31</ele>
        <time>2018-01-18T14:10:25Z</time>
      </trkpt>
      <trkpt lat="45.05672" lon="0.61453">
        <ele>183.27</ele>
        <time>2018-01-18T14:10:39Z</time>
      </trkpt>
      <trkpt lat="45.05657" lon="0.61461">
        <ele>183.27</ele>
        <time>2018-01-18T14:10:53Z</time>
      </trkpt>
      <trkpt lat="45.05644" lon="0.61468">
        <ele>184.23</ele>
        <time>2018-01-18T14:11:08Z</time>
      </trkpt>
      <trkpt lat="45.05631" lon="0.61477">
        <ele>184.23</ele>
        <time>2018-01-18T14:11:22Z</time>
      </trkpt>
      <trkpt lat="45.05617" lon="0.61489">
        <ele>184.71</ele>
        <time>2018-01-18T14:11:37Z</time>
      </trkpt>
      <trkpt lat="45.05602" lon="0.61497">
        <ele>185.19</ele>
        <time>2018-01-18T14:11:52Z</time>
      </trkpt>
      <trkpt lat="45.05589" lon="0.61501">
        <ele>185.67</ele>
        <time>2018-01-18T14:12:05Z</time>
      </trkpt>
      <trkpt lat="45.05574" lon="0.61503">
        <ele>186.15</ele>
        <time>2018-01-18T14:12:21Z</time>
      </trkpt>
      <trkpt lat="45.05575" lon="0.61505">
        <ele>186.15</ele>
        <time>2018-01-18T14:12:37Z</time>
      </trkpt>
      <trkpt lat="45.05573" lon="0.61507">
        <ele>186.15</ele>
        <time>2018-01-18T14:12:55Z</time>
      </trkpt>
      <trkpt lat="45.05566" lon="0.61504">
        <ele>186.15</ele>
        <time>2018-01-18T14:13:17Z</time>
      </trkpt>
      <trkpt lat="45.0556" lon="0.61504">
        <ele>186.63</ele>
        <time>2018-01-18T14:13:31Z</time>
      </trkpt>
      <trkpt lat="45.05544" lon="0.61512">
        <ele>187.11</ele>
        <time>2018-01-18T14:13:45Z</time>
      </trkpt>
      <trkpt lat="45.05527" lon="0.61518">
        <ele>188.08</ele>
        <time>2018-01-18T14:14:01Z</time>
      </trkpt>
      <trkpt lat="45.05513" lon="0.61527">
        <ele>188.56</ele>
        <time>2018-01-18T14:14:17Z</time>
      </trkpt>
      <trkpt lat="45.05497" lon="0.61533">
        <ele>189.52</ele>
        <time>2018-01-18T14:14:32Z</time>
      </trkpt>
      <trkpt lat="45.05485" lon="0.61538">
        <ele>190</ele>
        <time>2018-01-18T14:14:46Z</time>
      </trkpt>
      <trkpt lat="45.05484" lon="0.61539">
        <ele>190.48</ele>
        <time>2018-01-18T14:15:02Z</time>
      </trkpt>
      <trkpt lat="45.05486" lon="0.61538">
        <ele>190.48</ele>
        <time>2018-01-18T14:15:18Z</time>
      </trkpt>
      <trkpt lat="45.05489" lon="0.61534">
        <ele>190.96</ele>
        <time>2018-01-18T14:15:44Z</time>
      </trkpt>
      <trkpt lat="45.0549" lon="0.61534">
        <ele>190.96</ele>
        <time>2018-01-18T14:16:09Z</time>
      </trkpt>
      <trkpt lat="45.05493" lon="0.61537">
        <ele>190.96</ele>
        <time>2018-01-18T14:16:28Z</time>
      </trkpt>
      <trkpt lat="45.0549" lon="0.61533">
        <ele>191.44</ele>
        <time>2018-01-18T14:16:55Z</time>
      </trkpt>
      <trkpt lat="45.05488" lon="0.61535">
        <ele>191.44</ele>
        <time>2018-01-18T14:17:17Z</time>
      </trkpt>
      <trkpt lat="45.05482" lon="0.61536">
        <ele>191.44</ele>
        <time>2018-01-18T14:17:44Z</time>
      </trkpt>
      <trkpt lat="45.05484" lon="0.61532">
        <ele>191.44</ele>
        <time>2018-01-18T14:18:05Z</time>
      </trkpt>
      <trkpt lat="45.05487" lon="0.61533">
        <ele>191.44</ele>
        <time>2018-01-18T14:18:32Z</time>
      </trkpt>
      <trkpt lat="45.05479" lon="0.61534">
        <ele>191.44</ele>
        <time>2018-01-18T14:18:53Z</time>
      </trkpt>
      <trkpt lat="45.05465" lon="0.61535">
        <ele>192.4</ele>
        <time>2018-01-18T14:19:07Z</time>
      </trkpt>
      <trkpt lat="45.05451" lon="0.61535">
        <ele>192.88</ele>
        <time>2018-01-18T14:19:21Z</time>
      </trkpt>
      <trkpt lat="45.05445" lon="0.61534">
        <ele>192.88</ele>
        <time>2018-01-18T14:19:28Z</time>
      </trkpt>
      <trkpt lat="45.05431" lon="0.61531">
        <ele>193.36</ele>
        <time>2018-01-18T14:19:41Z</time>
      </trkpt>
      <trkpt lat="45.05427" lon="0.6153">
        <ele>193.36</ele>
        <time>2018-01-18T14:19:44Z</time>
      </trkpt>
      <trkpt lat="45.0541" lon="0.61522">
        <ele>193.36</ele>
        <time>2018-01-18T14:20:03Z</time>
      </trkpt>
      <trkpt lat="45.05397" lon="0.61514">
        <ele>193.36</ele>
        <time>2018-01-18T14:20:20Z</time>
      </trkpt>
      <trkpt lat="45.05381" lon="0.61509">
        <ele>192.88</ele>
        <time>2018-01-18T14:20:35Z</time>
      </trkpt>
      <trkpt lat="45.05366" lon="0.61503">
        <ele>191.44</ele>
        <time>2018-01-18T14:20:50Z</time>
      </trkpt>
      <trkpt lat="45.0535" lon="0.61501">
        <ele>190.48</ele>
        <time>2018-01-18T14:21:05Z</time>
      </trkpt>
      <trkpt lat="45.05334" lon="0.61501">
        <ele>190.48</ele>
        <time>2018-01-18T14:21:19Z</time>
      </trkpt>
      <trkpt lat="45.05322" lon="0.61505">
        <ele>190</ele>
        <time>2018-01-18T14:21:35Z</time>
      </trkpt>
      <trkpt lat="45.0531" lon="0.6151">
        <ele>191.44</ele>
        <time>2018-01-18T14:21:46Z</time>
      </trkpt>
      <trkpt lat="45.05293" lon="0.61518">
        <ele>191.44</ele>
        <time>2018-01-18T14:22:02Z</time>
      </trkpt>
      <trkpt lat="45.05275" lon="0.61525">
        <ele>191.44</ele>
        <time>2018-01-18T14:22:19Z</time>
      </trkpt>
      <trkpt lat="45.05257" lon="0.61524">
        <ele>191.44</ele>
        <time>2018-01-18T14:22:35Z</time>
      </trkpt>
      <trkpt lat="45.05246" lon="0.61519">
        <ele>191.44</ele>
        <time>2018-01-18T14:22:45Z</time>
      </trkpt>
      <trkpt lat="45.05228" lon="0.61511">
        <ele>192.4</ele>
        <time>2018-01-18T14:23:02Z</time>
      </trkpt>
      <trkpt lat="45.05208" lon="0.61495">
        <ele>192.4</ele>
        <time>2018-01-18T14:23:21Z</time>
      </trkpt>
      <trkpt lat="45.05191" lon="0.61473">
        <ele>190.96</ele>
        <time>2018-01-18T14:23:41Z</time>
      </trkpt>
      <trkpt lat="45.05178" lon="0.61448">
        <ele>190</ele>
        <time>2018-01-18T14:24:00Z</time>
      </trkpt>
      <trkpt lat="45.0516" lon="0.61424">
        <ele>188.08</ele>
        <time>2018-01-18T14:24:21Z</time>
      </trkpt>
      <trkpt lat="45.05141" lon="0.6141">
        <ele>188.08</ele>
        <time>2018-01-18T14:24:39Z</time>
      </trkpt>
      <trkpt lat="45.05124" lon="0.61399">
        <ele>188.08</ele>
        <time>2018-01-18T14:24:55Z</time>
      </trkpt>
      <trkpt lat="45.05103" lon="0.61384">
        <ele>187.59</ele>
        <time>2018-01-18T14:25:15Z</time>
      </trkpt>
      <trkpt lat="45.05099" lon="0.61381">
        <ele>187.59</ele>
        <time>2018-01-18T14:25:19Z</time>
      </trkpt>
      <trkpt lat="45.05092" lon="0.61375">
        <ele>187.11</ele>
        <time>2018-01-18T14:25:26Z</time>
      </trkpt>
      <trkpt lat="45.05074" lon="0.6136">
        <ele>186.63</ele>
        <time>2018-01-18T14:25:44Z</time>
      </trkpt>
      <trkpt lat="45.05054" lon="0.61345">
        <ele>184.23</ele>
        <time>2018-01-18T14:26:03Z</time>
      </trkpt>
      <trkpt lat="45.05033" lon="0.61339">
        <ele>181.35</ele>
        <time>2018-01-18T14:26:22Z</time>
      </trkpt>
      <trkpt lat="45.0501" lon="0.6133">
        <ele>180.38</ele>
        <time>2018-01-18T14:26:42Z</time>
      </trkpt>
      <trkpt lat="45.04993" lon="0.61312">
        <ele>179.9</ele>
        <time>2018-01-18T14:26:59Z</time>
      </trkpt>
      <trkpt lat="45.04982" lon="0.61284">
        <ele>179.9</ele>
        <time>2018-01-18T14:27:16Z</time>
      </trkpt>
      <trkpt lat="45.04978" lon="0.61275">
        <ele>179.9</ele>
        <time>2018-01-18T14:27:22Z</time>
      </trkpt>
      <trkpt lat="45.04968" lon="0.61247">
        <ele>181.35</ele>
        <time>2018-01-18T14:27:41Z</time>
      </trkpt>
      <trkpt lat="45.04963" lon="0.61231">
        <ele>182.31</ele>
        <time>2018-01-18T14:27:51Z</time>
      </trkpt>
      <trkpt lat="45.0496" lon="0.61224">
        <ele>182.31</ele>
        <time>2018-01-18T14:27:56Z</time>
      </trkpt>
      <trkpt lat="45.04949" lon="0.61199">
        <ele>182.79</ele>
        <time>2018-01-18T14:28:13Z</time>
      </trkpt>
      <trkpt lat="45.04937" lon="0.61176">
        <ele>182.79</ele>
        <time>2018-01-18T14:28:31Z</time>
      </trkpt>
      <trkpt lat="45.04924" lon="0.61152">
        <ele>181.35</ele>
        <time>2018-01-18T14:28:49Z</time>
      </trkpt>
      <trkpt lat="45.04916" lon="0.61122">
        <ele>181.35</ele>
        <time>2018-01-18T14:29:07Z</time>
      </trkpt>
      <trkpt lat="45.04906" lon="0.61096">
        <ele>180.87</ele>
        <time>2018-01-18T14:29:24Z</time>
      </trkpt>
      <trkpt lat="45.04896" lon="0.6107">
        <ele>182.31</ele>
        <time>2018-01-18T14:29:41Z</time>
      </trkpt>
      <trkpt lat="45.04884" lon="0.61046">
        <ele>182.31</ele>
        <time>2018-01-18T14:29:59Z</time>
      </trkpt>
      <trkpt lat="45.0488" lon="0.61031">
        <ele>182.31</ele>
        <time>2018-01-18T14:30:09Z</time>
      </trkpt>
      <trkpt lat="45.04881" lon="0.61023">
        <ele>181.35</ele>
        <time>2018-01-18T14:30:14Z</time>
      </trkpt>
      <trkpt lat="45.04882" lon="0.6099">
        <ele>179.9</ele>
        <time>2018-01-18T14:30:35Z</time>
      </trkpt>
      <trkpt lat="45.0487" lon="0.60973">
        <ele>177.98</ele>
        <time>2018-01-18T14:30:53Z</time>
      </trkpt>
      <trkpt lat="45.04863" lon="0.60966">
        <ele>176.54</ele>
        <time>2018-01-18T14:31:09Z</time>
      </trkpt>
      <trkpt lat="45.04856" lon="0.60957">
        <ele>175.1</ele>
        <time>2018-01-18T14:31:23Z</time>
      </trkpt>
      <trkpt lat="45.04846" lon="0.60947">
        <ele>172.69</ele>
        <time>2018-01-18T14:31:39Z</time>
      </trkpt>
      <trkpt lat="45.04835" lon="0.60938">
        <ele>170.29</ele>
        <time>2018-01-18T14:31:53Z</time>
      </trkpt>
      <trkpt lat="45.04828" lon="0.6093">
        <ele>167.89</ele>
        <time>2018-01-18T14:32:06Z</time>
      </trkpt>
      <trkpt lat="45.04821" lon="0.60922">
        <ele>165.48</ele>
        <time>2018-01-18T14:32:19Z</time>
      </trkpt>
      <trkpt lat="45.04819" lon="0.60913">
        <ele>163.56</ele>
        <time>2018-01-18T14:32:35Z</time>
      </trkpt>
      <trkpt lat="45.04814" lon="0.609">
        <ele>160.2</ele>
        <time>2018-01-18T14:32:50Z</time>
      </trkpt>
      <trkpt lat="45.0481" lon="0.60892">
        <ele>157.31</ele>
        <time>2018-01-18T14:33:07Z</time>
      </trkpt>
      <trkpt lat="45.04803" lon="0.60883">
        <ele>154.91</ele>
        <time>2018-01-18T14:33:22Z</time>
      </trkpt>
      <trkpt lat="45.04794" lon="0.60876">
        <ele>152.03</ele>
        <time>2018-01-18T14:33:36Z</time>
      </trkpt>
      <trkpt lat="45.04783" lon="0.60862">
        <ele>150.1</ele>
        <time>2018-01-18T14:33:51Z</time>
      </trkpt>
      <trkpt lat="45.04771" lon="0.60835">
        <ele>148.66</ele>
        <time>2018-01-18T14:34:08Z</time>
      </trkpt>
      <trkpt lat="45.04769" lon="0.60833">
        <ele>148.66</ele>
        <time>2018-01-18T14:34:10Z</time>
      </trkpt>
      <trkpt lat="45.04761" lon="0.60813">
        <ele>150.1</ele>
        <time>2018-01-18T14:34:26Z</time>
      </trkpt>
      <trkpt lat="45.04754" lon="0.60797">
        <ele>152.03</ele>
        <time>2018-01-18T14:34:40Z</time>
      </trkpt>
      <trkpt lat="45.0475" lon="0.60789">
        <ele>153.95</ele>
        <time>2018-01-18T14:34:52Z</time>
      </trkpt>
      <trkpt lat="45.04746" lon="0.60778">
        <ele>157.31</ele>
        <time>2018-01-18T14:35:07Z</time>
      </trkpt>
      <trkpt lat="45.04743" lon="0.60765">
        <ele>159.72</ele>
        <time>2018-01-18T14:35:21Z</time>
      </trkpt>
      <trkpt lat="45.0474" lon="0.60752">
        <ele>162.12</ele>
        <time>2018-01-18T14:35:34Z</time>
      </trkpt>
      <trkpt lat="45.04738" lon="0.60739">
        <ele>163.56</ele>
        <time>2018-01-18T14:35:47Z</time>
      </trkpt>
      <trkpt lat="45.04732" lon="0.60728">
        <ele>165.48</ele>
        <time>2018-01-18T14:36:00Z</time>
      </trkpt>
      <trkpt lat="45.04731" lon="0.60729">
        <ele>165.96</ele>
        <time>2018-01-18T14:36:15Z</time>
      </trkpt>
      <trkpt lat="45.04732" lon="0.60729">
        <ele>166.45</ele>
        <time>2018-01-18T14:36:39Z</time>
      </trkpt>
      <trkpt lat="45.04729" lon="0.6073">
        <ele>165.96</ele>
        <time>2018-01-18T14:37:04Z</time>
      </trkpt>
      <trkpt lat="45.04716" lon="0.6074">
        <ele>166.45</ele>
        <time>2018-01-18T14:37:21Z</time>
      </trkpt>
      <trkpt lat="45.04713" lon="0.60742">
        <ele>166.45</ele>
        <time>2018-01-18T14:37:24Z</time>
      </trkpt>
      <trkpt lat="45.04698" lon="0.6075">
        <ele>166.93</ele>
        <time>2018-01-18T14:37:39Z</time>
      </trkpt>
      <trkpt lat="45.04681" lon="0.60761">
        <ele>167.89</ele>
        <time>2018-01-18T14:37:55Z</time>
      </trkpt>
      <trkpt lat="45.04667" lon="0.60766">
        <ele>167.89</ele>
        <time>2018-01-18T14:38:12Z</time>
      </trkpt>
      <trkpt lat="45.04653" lon="0.60771">
        <ele>168.37</ele>
        <time>2018-01-18T14:38:26Z</time>
      </trkpt>
      <trkpt lat="45.04635" lon="0.60779">
        <ele>169.33</ele>
        <time>2018-01-18T14:38:42Z</time>
      </trkpt>
      <trkpt lat="45.0462" lon="0.6079">
        <ele>170.29</ele>
        <time>2018-01-18T14:38:56Z</time>
      </trkpt>
      <trkpt lat="45.04606" lon="0.608">
        <ele>171.25</ele>
        <time>2018-01-18T14:39:12Z</time>
      </trkpt>
      <trkpt lat="45.04594" lon="0.6081">
        <ele>171.73</ele>
        <time>2018-01-18T14:39:25Z</time>
      </trkpt>
      <trkpt lat="45.0459" lon="0.60813">
        <ele>172.21</ele>
        <time>2018-01-18T14:39:29Z</time>
      </trkpt>
      <trkpt lat="45.04581" lon="0.60822">
        <ele>172.21</ele>
        <time>2018-01-18T14:39:39Z</time>
      </trkpt>
      <trkpt lat="45.04566" lon="0.60839">
        <ele>172.69</ele>
        <time>2018-01-18T14:39:56Z</time>
      </trkpt>
      <trkpt lat="45.04553" lon="0.60857">
        <ele>172.69</ele>
        <time>2018-01-18T14:40:12Z</time>
      </trkpt>
      <trkpt lat="45.04549" lon="0.60863">
        <ele>173.17</ele>
        <time>2018-01-18T14:40:18Z</time>
      </trkpt>
      <trkpt lat="45.04534" lon="0.60881">
        <ele>173.17</ele>
        <time>2018-01-18T14:40:34Z</time>
      </trkpt>
      <trkpt lat="45.04526" lon="0.60892">
        <ele>173.17</ele>
        <time>2018-01-18T14:40:44Z</time>
      </trkpt>
      <trkpt lat="45.04514" lon="0.60904">
        <ele>173.17</ele>
        <time>2018-01-18T14:40:58Z</time>
      </trkpt>
      <trkpt lat="45.04501" lon="0.60925">
        <ele>171.25</ele>
        <time>2018-01-18T14:41:14Z</time>
      </trkpt>
      <trkpt lat="45.04501" lon="0.60928">
        <ele>171.25</ele>
        <time>2018-01-18T14:41:16Z</time>
      </trkpt>
      <trkpt lat="45.04497" lon="0.60947">
        <ele>171.25</ele>
        <time>2018-01-18T14:41:29Z</time>
      </trkpt>
      <trkpt lat="45.04493" lon="0.60965">
        <ele>171.25</ele>
        <time>2018-01-18T14:41:40Z</time>
      </trkpt>
      <trkpt lat="45.04489" lon="0.60989">
        <ele>171.25</ele>
        <time>2018-01-18T14:41:52Z</time>
      </trkpt>
      <trkpt lat="45.04482" lon="0.61017">
        <ele>171.25</ele>
        <time>2018-01-18T14:42:07Z</time>
      </trkpt>
      <trkpt lat="45.04479" lon="0.61034">
        <ele>171.25</ele>
        <time>2018-01-18T14:42:19Z</time>
      </trkpt>
      <trkpt lat="45.04474" lon="0.61053">
        <ele>171.25</ele>
        <time>2018-01-18T14:42:33Z</time>
      </trkpt>
      <trkpt lat="45.04467" lon="0.61069">
        <ele>170.29</ele>
        <time>2018-01-18T14:42:45Z</time>
      </trkpt>
      <trkpt lat="45.04451" lon="0.61091">
        <ele>168.85</ele>
        <time>2018-01-18T14:43:01Z</time>
      </trkpt>
      <trkpt lat="45.04439" lon="0.61106">
        <ele>167.41</ele>
        <time>2018-01-18T14:43:16Z</time>
      </trkpt>
      <trkpt lat="45.04426" lon="0.61119">
        <ele>167.41</ele>
        <time>2018-01-18T14:43:31Z</time>
      </trkpt>
      <trkpt lat="45.0442" lon="0.61127">
        <ele>166.93</ele>
        <time>2018-01-18T14:43:39Z</time>
      </trkpt>
      <trkpt lat="45.04407" lon="0.61139">
        <ele>166.93</ele>
        <time>2018-01-18T14:43:53Z</time>
      </trkpt>
      <trkpt lat="45.04393" lon="0.61154">
        <ele>166.93</ele>
        <time>2018-01-18T14:44:10Z</time>
      </trkpt>
      <trkpt lat="45.04383" lon="0.61166">
        <ele>166.45</ele>
        <time>2018-01-18T14:44:23Z</time>
      </trkpt>
      <trkpt lat="45.0437" lon="0.61185">
        <ele>165.96</ele>
        <time>2018-01-18T14:44:38Z</time>
      </trkpt>
      <trkpt lat="45.04364" lon="0.612">
        <ele>165.96</ele>
        <time>2018-01-18T14:44:49Z</time>
      </trkpt>
      <trkpt lat="45.04356" lon="0.61221">
        <ele>165.48</ele>
        <time>2018-01-18T14:45:03Z</time>
      </trkpt>
      <trkpt lat="45.04353" lon="0.61232">
        <ele>165.48</ele>
        <time>2018-01-18T14:45:10Z</time>
      </trkpt>
      <trkpt lat="45.04352" lon="0.61235">
        <ele>165.48</ele>
        <time>2018-01-18T14:45:12Z</time>
      </trkpt>
      <trkpt lat="45.04345" lon="0.61252">
        <ele>165.48</ele>
        <time>2018-01-18T14:45:22Z</time>
      </trkpt>
      <trkpt lat="45.04335" lon="0.61271">
        <ele>166.93</ele>
        <time>2018-01-18T14:45:36Z</time>
      </trkpt>
      <trkpt lat="45.0433" lon="0.61281">
        <ele>167.41</ele>
        <time>2018-01-18T14:45:44Z</time>
      </trkpt>
      <trkpt lat="45.04321" lon="0.61299">
        <ele>168.37</ele>
        <time>2018-01-18T14:45:58Z</time>
      </trkpt>
      <trkpt lat="45.04312" lon="0.61311">
        <ele>168.85</ele>
        <time>2018-01-18T14:46:10Z</time>
      </trkpt>
      <trkpt lat="45.04303" lon="0.61327">
        <ele>168.85</ele>
        <time>2018-01-18T14:46:24Z</time>
      </trkpt>
      <trkpt lat="45.04295" lon="0.6134">
        <ele>168.37</ele>
        <time>2018-01-18T14:46:38Z</time>
      </trkpt>
      <trkpt lat="45.04289" lon="0.61351">
        <ele>169.33</ele>
        <time>2018-01-18T14:46:48Z</time>
      </trkpt>
      <trkpt lat="45.04279" lon="0.61344">
        <ele>170.77</ele>
        <time>2018-01-18T14:47:01Z</time>
      </trkpt>
      <trkpt lat="45.04272" lon="0.61331">
        <ele>172.21</ele>
        <time>2018-01-18T14:47:14Z</time>
      </trkpt>
      <trkpt lat="45.04266" lon="0.61316">
        <ele>173.17</ele>
        <time>2018-01-18T14:47:24Z</time>
      </trkpt>
      <trkpt lat="45.04266" lon="0.61313">
        <ele>173.17</ele>
        <time>2018-01-18T14:47:26Z</time>
      </trkpt>
      <trkpt lat="45.04261" lon="0.61297">
        <ele>175.1</ele>
        <time>2018-01-18T14:47:40Z</time>
      </trkpt>
      <trkpt lat="45.04255" lon="0.61278">
        <ele>176.54</ele>
        <time>2018-01-18T14:47:54Z</time>
      </trkpt>
      <trkpt lat="45.04254" lon="0.61274">
        <ele>177.02</ele>
        <time>2018-01-18T14:47:56Z</time>
      </trkpt>
      <trkpt lat="45.0425" lon="0.61256">
        <ele>178.46</ele>
        <time>2018-01-18T14:48:10Z</time>
      </trkpt>
      <trkpt lat="45.04245" lon="0.61241">
        <ele>179.42</ele>
        <time>2018-01-18T14:48:21Z</time>
      </trkpt>
      <trkpt lat="45.04241" lon="0.61221">
        <ele>180.87</ele>
        <time>2018-01-18T14:48:35Z</time>
      </trkpt>
      <trkpt lat="45.04238" lon="0.61203">
        <ele>181.35</ele>
        <time>2018-01-18T14:48:49Z</time>
      </trkpt>
      <trkpt lat="45.04235" lon="0.61187">
        <ele>182.31</ele>
        <time>2018-01-18T14:49:02Z</time>
      </trkpt>
      <trkpt lat="45.04232" lon="0.61171">
        <ele>183.27</ele>
        <time>2018-01-18T14:49:14Z</time>
      </trkpt>
      <trkpt lat="45.04231" lon="0.6115">
        <ele>184.71</ele>
        <time>2018-01-18T14:49:27Z</time>
      </trkpt>
      <trkpt lat="45.04231" lon="0.61127">
        <ele>187.11</ele>
        <time>2018-01-18T14:49:44Z</time>
      </trkpt>
      <trkpt lat="45.04231" lon="0.61106">
        <ele>189.52</ele>
        <time>2018-01-18T14:49:59Z</time>
      </trkpt>
      <trkpt lat="45.0423" lon="0.61086">
        <ele>191.92</ele>
        <time>2018-01-18T14:50:14Z</time>
      </trkpt>
      <trkpt lat="45.04228" lon="0.61061">
        <ele>193.84</ele>
        <time>2018-01-18T14:50:28Z</time>
      </trkpt>
      <trkpt lat="45.04228" lon="0.61043">
        <ele>194.8</ele>
        <time>2018-01-18T14:50:39Z</time>
      </trkpt>
      <trkpt lat="45.04227" lon="0.61035">
        <ele>195.77</ele>
        <time>2018-01-18T14:50:44Z</time>
      </trkpt>
      <trkpt lat="45.04227" lon="0.61026">
        <ele>196.73</ele>
        <time>2018-01-18T14:50:50Z</time>
      </trkpt>
      <trkpt lat="45.04227" lon="0.61007">
        <ele>198.17</ele>
        <time>2018-01-18T14:51:02Z</time>
      </trkpt>
      <trkpt lat="45.04226" lon="0.60995">
        <ele>199.13</ele>
        <time>2018-01-18T14:51:10Z</time>
      </trkpt>
      <trkpt lat="45.04227" lon="0.60975">
        <ele>201.05</ele>
        <time>2018-01-18T14:51:23Z</time>
      </trkpt>
      <trkpt lat="45.04227" lon="0.60964">
        <ele>202.01</ele>
        <time>2018-01-18T14:51:31Z</time>
      </trkpt>
      <trkpt lat="45.04227" lon="0.60961">
        <ele>202.49</ele>
        <time>2018-01-18T14:51:33Z</time>
      </trkpt>
      <trkpt lat="45.04228" lon="0.60948">
        <ele>203.94</ele>
        <time>2018-01-18T14:51:43Z</time>
      </trkpt>
      <trkpt lat="45.04228" lon="0.60945">
        <ele>203.94</ele>
        <time>2018-01-18T14:51:45Z</time>
      </trkpt>
      <trkpt lat="45.04227" lon="0.60931">
        <ele>205.86</ele>
        <time>2018-01-18T14:51:55Z</time>
      </trkpt>
      <trkpt lat="45.04226" lon="0.60924">
        <ele>206.34</ele>
        <time>2018-01-18T14:52:00Z</time>
      </trkpt>
      <trkpt lat="45.04224" lon="0.609">
        <ele>208.26</ele>
        <time>2018-01-18T14:52:15Z</time>
      </trkpt>
      <trkpt lat="45.04222" lon="0.60879">
        <ele>208.26</ele>
        <time>2018-01-18T14:52:29Z</time>
      </trkpt>
      <trkpt lat="45.04222" lon="0.60866">
        <ele>208.26</ele>
        <time>2018-01-18T14:52:43Z</time>
      </trkpt>
      <trkpt lat="45.04223" lon="0.60868">
        <ele>208.26</ele>
        <time>2018-01-18T14:52:57Z</time>
      </trkpt>
      <trkpt lat="45.04222" lon="0.60865">
        <ele>208.74</ele>
        <time>2018-01-18T14:53:12Z</time>
      </trkpt>
      <trkpt lat="45.04224" lon="0.60866">
        <ele>208.74</ele>
        <time>2018-01-18T14:53:39Z</time>
      </trkpt>
      <trkpt lat="45.04223" lon="0.60863">
        <ele>209.22</ele>
        <time>2018-01-18T14:53:57Z</time>
      </trkpt>
      <trkpt lat="45.04222" lon="0.60863">
        <ele>209.22</ele>
        <time>2018-01-18T14:54:20Z</time>
      </trkpt>
      <trkpt lat="45.04223" lon="0.60864">
        <ele>209.22</ele>
        <time>2018-01-18T14:54:42Z</time>
      </trkpt>
      <trkpt lat="45.04223" lon="0.60863">
        <ele>209.22</ele>
        <time>2018-01-18T14:55:02Z</time>
      </trkpt>
      <trkpt lat="45.04221" lon="0.60864">
        <ele>209.22</ele>
        <time>2018-01-18T14:55:23Z</time>
      </trkpt>
      <trkpt lat="45.04221" lon="0.60864">
        <ele>206.82</ele>
        <time>2018-01-18T14:55:46Z</time>
      </trkpt>
      <trkpt lat="45.04221" lon="0.60865">
        <ele>209.22</ele>
        <time>2018-01-18T14:56:07Z</time>
      </trkpt>
      <trkpt lat="45.04218" lon="0.60856">
        <ele>209.22</ele>
        <time>2018-01-18T14:56:25Z</time>
      </trkpt>
      <trkpt lat="45.04216" lon="0.60851">
        <ele>207.78</ele>
        <time>2018-01-18T14:56:30Z</time>
      </trkpt>
      <trkpt lat="45.04208" lon="0.60834">
        <ele>206.34</ele>
        <time>2018-01-18T14:56:45Z</time>
      </trkpt>
      <trkpt lat="45.04205" lon="0.60826">
        <ele>205.38</ele>
        <time>2018-01-18T14:56:52Z</time>
      </trkpt>
      <trkpt lat="45.04195" lon="0.60802">
        <ele>205.86</ele>
        <time>2018-01-18T14:57:10Z</time>
      </trkpt>
      <trkpt lat="45.04185" lon="0.60787">
        <ele>205.86</ele>
        <time>2018-01-18T14:57:24Z</time>
      </trkpt>
      <trkpt lat="45.04175" lon="0.60782">
        <ele>205.86</ele>
        <time>2018-01-18T14:57:34Z</time>
      </trkpt>
      <trkpt lat="45.04173" lon="0.60782">
        <ele>206.82</ele>
        <time>2018-01-18T14:57:36Z</time>
      </trkpt>
      <trkpt lat="45.04172" lon="0.60782">
        <ele>206.82</ele>
        <time>2018-01-18T14:57:37Z</time>
      </trkpt>
      <trkpt lat="45.04156" lon="0.60778">
        <ele>207.78</ele>
        <time>2018-01-18T14:57:52Z</time>
      </trkpt>
      <trkpt lat="45.0415" lon="0.60776">
        <ele>207.78</ele>
        <time>2018-01-18T14:57:57Z</time>
      </trkpt>
      <trkpt lat="45.0414" lon="0.60773">
        <ele>208.26</ele>
        <time>2018-01-18T14:58:06Z</time>
      </trkpt>
      <trkpt lat="45.04125" lon="0.6077">
        <ele>208.26</ele>
        <time>2018-01-18T14:58:19Z</time>
      </trkpt>
      <trkpt lat="45.04111" lon="0.60763">
        <ele>208.26</ele>
        <time>2018-01-18T14:58:33Z</time>
      </trkpt>
      <trkpt lat="45.04107" lon="0.60755">
        <ele>208.26</ele>
        <time>2018-01-18T14:58:39Z</time>
      </trkpt>
      <trkpt lat="45.04106" lon="0.60741">
        <ele>206.82</ele>
        <time>2018-01-18T14:58:47Z</time>
      </trkpt>
      <trkpt lat="45.04102" lon="0.60722">
        <ele>204.9</ele>
        <time>2018-01-18T14:59:00Z</time>
      </trkpt>
      <trkpt lat="45.04104" lon="0.60692">
        <ele>203.46</ele>
        <time>2018-01-18T14:59:18Z</time>
      </trkpt>
      <trkpt lat="45.04108" lon="0.60659">
        <ele>201.53</ele>
        <time>2018-01-18T14:59:37Z</time>
      </trkpt>
      <trkpt lat="45.04112" lon="0.6063">
        <ele>200.09</ele>
        <time>2018-01-18T14:59:57Z</time>
      </trkpt>
      <trkpt lat="45.04114" lon="0.60609">
        <ele>199.61</ele>
        <time>2018-01-18T15:00:11Z</time>
      </trkpt>
      <trkpt lat="45.04116" lon="0.60598">
        <ele>199.61</ele>
        <time>2018-01-18T15:00:30Z</time>
      </trkpt>
      <trkpt lat="45.04116" lon="0.60596">
        <ele>199.61</ele>
        <time>2018-01-18T15:00:31Z</time>
      </trkpt>
      <trkpt lat="45.04115" lon="0.60583">
        <ele>198.17</ele>
        <time>2018-01-18T15:00:40Z</time>
      </trkpt>
      <trkpt lat="45.04115" lon="0.60566">
        <ele>197.21</ele>
        <time>2018-01-18T15:00:56Z</time>
      </trkpt>
      <trkpt lat="45.04115" lon="0.60548">
        <ele>196.73</ele>
        <time>2018-01-18T15:01:11Z</time>
      </trkpt>
      <trkpt lat="45.04114" lon="0.60524">
        <ele>195.28</ele>
        <time>2018-01-18T15:01:27Z</time>
      </trkpt>
      <trkpt lat="45.04113" lon="0.60513">
        <ele>195.28</ele>
        <time>2018-01-18T15:01:35Z</time>
      </trkpt>
      <trkpt lat="45.041" lon="0.60497">
        <ele>192.88</ele>
        <time>2018-01-18T15:01:52Z</time>
      </trkpt>
      <trkpt lat="45.04083" lon="0.60485">
        <ele>190</ele>
        <time>2018-01-18T15:02:09Z</time>
      </trkpt>
      <trkpt lat="45.04066" lon="0.60473">
        <ele>187.11</ele>
        <time>2018-01-18T15:02:25Z</time>
      </trkpt>
      <trkpt lat="45.04047" lon="0.60457">
        <ele>184.71</ele>
        <time>2018-01-18T15:02:43Z</time>
      </trkpt>
      <trkpt lat="45.04037" lon="0.60434">
        <ele>182.31</ele>
        <time>2018-01-18T15:02:59Z</time>
      </trkpt>
      <trkpt lat="45.04033" lon="0.60404">
        <ele>180.38</ele>
        <time>2018-01-18T15:03:16Z</time>
      </trkpt>
      <trkpt lat="45.04031" lon="0.60373">
        <ele>178.46</ele>
        <time>2018-01-18T15:03:34Z</time>
      </trkpt>
      <trkpt lat="45.04034" lon="0.60346">
        <ele>177.5</ele>
        <time>2018-01-18T15:03:50Z</time>
      </trkpt>
      <trkpt lat="45.04048" lon="0.6032">
        <ele>176.54</ele>
        <time>2018-01-18T15:04:09Z</time>
      </trkpt>
      <trkpt lat="45.04063" lon="0.60298">
        <ele>175.58</ele>
        <time>2018-01-18T15:04:27Z</time>
      </trkpt>
      <trkpt lat="45.04074" lon="0.60276">
        <ele>175.1</ele>
        <time>2018-01-18T15:04:44Z</time>
      </trkpt>
      <trkpt lat="45.04081" lon="0.60254">
        <ele>174.14</ele>
        <time>2018-01-18T15:05:00Z</time>
      </trkpt>
      <trkpt lat="45.04085" lon="0.60228">
        <ele>172.69</ele>
        <time>2018-01-18T15:05:17Z</time>
      </trkpt>
      <trkpt lat="45.04086" lon="0.60207">
        <ele>171.73</ele>
        <time>2018-01-18T15:05:30Z</time>
      </trkpt>
      <trkpt lat="45.04088" lon="0.60181">
        <ele>171.25</ele>
        <time>2018-01-18T15:05:47Z</time>
      </trkpt>
      <trkpt lat="45.04091" lon="0.6016">
        <ele>171.25</ele>
        <time>2018-01-18T15:06:03Z</time>
      </trkpt>
      <trkpt lat="45.04094" lon="0.60137">
        <ele>173.17</ele>
        <time>2018-01-18T15:06:18Z</time>
      </trkpt>
      <trkpt lat="45.04095" lon="0.60117">
        <ele>175.1</ele>
        <time>2018-01-18T15:06:33Z</time>
      </trkpt>
      <trkpt lat="45.04097" lon="0.60098">
        <ele>177.5</ele>
        <time>2018-01-18T15:06:47Z</time>
      </trkpt>
      <trkpt lat="45.04099" lon="0.60084">
        <ele>178.94</ele>
        <time>2018-01-18T15:06:57Z</time>
      </trkpt>
      <trkpt lat="45.04101" lon="0.60064">
        <ele>179.9</ele>
        <time>2018-01-18T15:07:10Z</time>
      </trkpt>
      <trkpt lat="45.04103" lon="0.60041">
        <ele>182.31</ele>
        <time>2018-01-18T15:07:24Z</time>
      </trkpt>
      <trkpt lat="45.04103" lon="0.60022">
        <ele>183.75</ele>
        <time>2018-01-18T15:07:36Z</time>
      </trkpt>
      <trkpt lat="45.04109" lon="0.59999">
        <ele>185.67</ele>
        <time>2018-01-18T15:07:52Z</time>
      </trkpt>
      <trkpt lat="45.04117" lon="0.59977">
        <ele>187.11</ele>
        <time>2018-01-18T15:08:07Z</time>
      </trkpt>
      <trkpt lat="45.04119" lon="0.59969">
        <ele>187.59</ele>
        <time>2018-01-18T15:08:12Z</time>
      </trkpt>
      <trkpt lat="45.0412" lon="0.59965">
        <ele>188.08</ele>
        <time>2018-01-18T15:08:15Z</time>
      </trkpt>
      <trkpt lat="45.04126" lon="0.59947">
        <ele>189.52</ele>
        <time>2018-01-18T15:08:28Z</time>
      </trkpt>
      <trkpt lat="45.04133" lon="0.59926">
        <ele>190.96</ele>
        <time>2018-01-18T15:08:43Z</time>
      </trkpt>
      <trkpt lat="45.0414" lon="0.59908">
        <ele>191.92</ele>
        <time>2018-01-18T15:08:56Z</time>
      </trkpt>
      <trkpt lat="45.04151" lon="0.59886">
        <ele>192.4</ele>
        <time>2018-01-18T15:09:13Z</time>
      </trkpt>
      <trkpt lat="45.04165" lon="0.59865">
        <ele>194.8</ele>
        <time>2018-01-18T15:09:31Z</time>
      </trkpt>
      <trkpt lat="45.04178" lon="0.59843">
        <ele>195.28</ele>
        <time>2018-01-18T15:09:49Z</time>
      </trkpt>
      <trkpt lat="45.04189" lon="0.59828">
        <ele>196.25</ele>
        <time>2018-01-18T15:10:01Z</time>
      </trkpt>
      <trkpt lat="45.04202" lon="0.59813">
        <ele>197.69</ele>
        <time>2018-01-18T15:10:16Z</time>
      </trkpt>
      <trkpt lat="45.04216" lon="0.59798">
        <ele>199.61</ele>
        <time>2018-01-18T15:10:31Z</time>
      </trkpt>
      <trkpt lat="45.04225" lon="0.59789">
        <ele>201.05</ele>
        <time>2018-01-18T15:10:41Z</time>
      </trkpt>
      <trkpt lat="45.04228" lon="0.59786">
        <ele>201.05</ele>
        <time>2018-01-18T15:10:44Z</time>
      </trkpt>
      <trkpt lat="45.04233" lon="0.5978">
        <ele>202.01</ele>
        <time>2018-01-18T15:10:50Z</time>
      </trkpt>
      <trkpt lat="45.04236" lon="0.59777">
        <ele>202.49</ele>
        <time>2018-01-18T15:10:53Z</time>
      </trkpt>
      <trkpt lat="45.04248" lon="0.59762">
        <ele>203.94</ele>
        <time>2018-01-18T15:11:08Z</time>
      </trkpt>
      <trkpt lat="45.04261" lon="0.59749">
        <ele>204.9</ele>
        <time>2018-01-18T15:11:23Z</time>
      </trkpt>
      <trkpt lat="45.04266" lon="0.59743">
        <ele>205.38</ele>
        <time>2018-01-18T15:11:29Z</time>
      </trkpt>
      <trkpt lat="45.04279" lon="0.59731">
        <ele>206.82</ele>
        <time>2018-01-18T15:11:46Z</time>
      </trkpt>
      <trkpt lat="45.0428" lon="0.59732">
        <ele>206.82</ele>
        <time>2018-01-18T15:12:05Z</time>
      </trkpt>
      <trkpt lat="45.04281" lon="0.59732">
        <ele>206.34</ele>
        <time>2018-01-18T15:12:31Z</time>
      </trkpt>
      <trkpt lat="45.0428" lon="0.59731">
        <ele>206.34</ele>
        <time>2018-01-18T15:12:57Z</time>
      </trkpt>
      <trkpt lat="45.04284" lon="0.59737">
        <ele>206.82</ele>
        <time>2018-01-18T15:13:17Z</time>
      </trkpt>
      <trkpt lat="45.04285" lon="0.59734">
        <ele>206.82</ele>
        <time>2018-01-18T15:13:34Z</time>
      </trkpt>
      <trkpt lat="45.04287" lon="0.5973">
        <ele>206.82</ele>
        <time>2018-01-18T15:13:45Z</time>
      </trkpt>
      <trkpt lat="45.04287" lon="0.59733">
        <ele>206.34</ele>
        <time>2018-01-18T15:14:07Z</time>
      </trkpt>
      <trkpt lat="45.04291" lon="0.59735">
        <ele>206.82</ele>
        <time>2018-01-18T15:14:27Z</time>
      </trkpt>
      <trkpt lat="45.043" lon="0.59741">
        <ele>207.78</ele>
        <time>2018-01-18T15:14:39Z</time>
      </trkpt>
      <trkpt lat="45.04307" lon="0.59745">
        <ele>208.74</ele>
        <time>2018-01-18T15:14:50Z</time>
      </trkpt>
      <trkpt lat="45.04318" lon="0.59753">
        <ele>208.74</ele>
        <time>2018-01-18T15:15:05Z</time>
      </trkpt>
      <trkpt lat="45.04323" lon="0.59759">
        <ele>208.74</ele>
        <time>2018-01-18T15:15:16Z</time>
      </trkpt>
      <trkpt lat="45.04334" lon="0.59765">
        <ele>207.78</ele>
        <time>2018-01-18T15:15:30Z</time>
      </trkpt>
      <trkpt lat="45.0434" lon="0.59769">
        <ele>207.3</ele>
        <time>2018-01-18T15:15:38Z</time>
      </trkpt>
      <trkpt lat="45.04345" lon="0.59773">
        <ele>206.82</ele>
        <time>2018-01-18T15:15:44Z</time>
      </trkpt>
      <trkpt lat="45.04347" lon="0.59774">
        <ele>206.82</ele>
        <time>2018-01-18T15:15:46Z</time>
      </trkpt>
      <trkpt lat="45.04358" lon="0.59779">
        <ele>205.86</ele>
        <time>2018-01-18T15:15:57Z</time>
      </trkpt>
      <trkpt lat="45.0436" lon="0.59784">
        <ele>205.38</ele>
        <time>2018-01-18T15:16:05Z</time>
      </trkpt>
      <trkpt lat="45.04376" lon="0.59795">
        <ele>203.46</ele>
        <time>2018-01-18T15:16:22Z</time>
      </trkpt>
      <trkpt lat="45.04379" lon="0.59795">
        <ele>203.46</ele>
        <time>2018-01-18T15:16:25Z</time>
      </trkpt>
      <trkpt lat="45.04392" lon="0.59798">
        <ele>203.46</ele>
        <time>2018-01-18T15:16:39Z</time>
      </trkpt>
      <trkpt lat="45.04412" lon="0.59801">
        <ele>203.46</ele>
        <time>2018-01-18T15:16:58Z</time>
      </trkpt>
      <trkpt lat="45.04434" lon="0.59804">
        <ele>203.46</ele>
        <time>2018-01-18T15:17:18Z</time>
      </trkpt>
      <trkpt lat="45.04453" lon="0.59808">
        <ele>202.98</ele>
        <time>2018-01-18T15:17:36Z</time>
      </trkpt>
      <trkpt lat="45.04466" lon="0.59808">
        <ele>204.42</ele>
        <time>2018-01-18T15:17:48Z</time>
      </trkpt>
      <trkpt lat="45.04474" lon="0.59812">
        <ele>204.42</ele>
        <time>2018-01-18T15:18:03Z</time>
      </trkpt>
      <trkpt lat="45.04484" lon="0.59805">
        <ele>204.42</ele>
        <time>2018-01-18T15:18:17Z</time>
      </trkpt>
      <trkpt lat="45.04489" lon="0.59803">
        <ele>203.46</ele>
        <time>2018-01-18T15:18:27Z</time>
      </trkpt>
      <trkpt lat="45.04492" lon="0.59801">
        <ele>204.42</ele>
        <time>2018-01-18T15:18:48Z</time>
      </trkpt>
      <trkpt lat="45.04493" lon="0.59801">
        <ele>203.94</ele>
        <time>2018-01-18T15:18:49Z</time>
      </trkpt>
      <trkpt lat="45.0451" lon="0.59798">
        <ele>204.42</ele>
        <time>2018-01-18T15:19:05Z</time>
      </trkpt>
      <trkpt lat="45.04515" lon="0.59798">
        <ele>202.98</ele>
        <time>2018-01-18T15:19:10Z</time>
      </trkpt>
      <trkpt lat="45.04522" lon="0.59814">
        <ele>202.49</ele>
        <time>2018-01-18T15:19:24Z</time>
      </trkpt>
      <trkpt lat="45.04524" lon="0.59816">
        <ele>202.49</ele>
        <time>2018-01-18T15:19:27Z</time>
      </trkpt>
      <trkpt lat="45.04534" lon="0.59827">
        <ele>202.01</ele>
        <time>2018-01-18T15:19:43Z</time>
      </trkpt>
      <trkpt lat="45.04531" lon="0.59827">
        <ele>202.01</ele>
        <time>2018-01-18T15:19:55Z</time>
      </trkpt>
      <trkpt lat="45.04533" lon="0.59827">
        <ele>202.01</ele>
        <time>2018-01-18T15:20:08Z</time>
      </trkpt>
      <trkpt lat="45.04539" lon="0.59826">
        <ele>202.01</ele>
        <time>2018-01-18T15:20:19Z</time>
      </trkpt>
      <trkpt lat="45.04538" lon="0.59827">
        <ele>201.53</ele>
        <time>2018-01-18T15:20:33Z</time>
      </trkpt>
      <trkpt lat="45.04538" lon="0.59828">
        <ele>201.05</ele>
        <time>2018-01-18T15:21:01Z</time>
      </trkpt>
      <trkpt lat="45.04538" lon="0.59829">
        <ele>201.05</ele>
        <time>2018-01-18T15:21:17Z</time>
      </trkpt>
      <trkpt lat="45.04538" lon="0.5983">
        <ele>201.05</ele>
        <time>2018-01-18T15:21:43Z</time>
      </trkpt>
      <trkpt lat="45.04538" lon="0.5983">
        <ele>202.49</ele>
        <time>2018-01-18T15:22:12Z</time>
      </trkpt>
      <trkpt lat="45.04538" lon="0.5983">
        <ele>202.49</ele>
        <time>2018-01-18T15:22:13Z</time>
      </trkpt>
    </trkseg>
  </trk>
</gpx>